<?xml version="1.0" encoding="UTF-8" standalone="no" ?>
<gpx xmlns="http://www.topografix.com/GPX/1/1" xmlns:xsi="http://www.w3.org/2001/XMLSchema-instance" xsi:schemaLocation="http://www.topografix.com/GPX/1/1 http://www.topografix.com/GPX/1/1/gpx.xsd" version="1.1" creator="VisuGPX - https://www.visugpx.com">
  <metadata>
    <name>Course à pied en soirée</name>
  </metadata>
  <trk>
    <name><![CDATA[Course à pied en soirée_1]]></name>
    <trkseg>
      <trkpt lat="43.64768" lon="1.37634">
        <ele>146</ele>
        <time>2025-05-15T16:12:08Z</time>
      </trkpt>
      <trkpt lat="43.64767" lon="1.37632">
        <ele>146</ele>
        <time>2025-05-15T16:12:09Z</time>
      </trkpt>
      <trkpt lat="43.64765" lon="1.37632">
        <ele>146</ele>
        <time>2025-05-15T16:12:10Z</time>
      </trkpt>
      <trkpt lat="43.64765" lon="1.37632">
        <ele>146</ele>
        <time>2025-05-15T16:12:11Z</time>
      </trkpt>
      <trkpt lat="43.64763" lon="1.37632">
        <ele>146</ele>
        <time>2025-05-15T16:12:12Z</time>
      </trkpt>
      <trkpt lat="43.64763" lon="1.37632">
        <ele>145</ele>
        <time>2025-05-15T16:12:13Z</time>
      </trkpt>
      <trkpt lat="43.64762" lon="1.37627">
        <ele>145</ele>
        <time>2025-05-15T16:12:14Z</time>
      </trkpt>
      <trkpt lat="43.64762" lon="1.37624">
        <ele>146</ele>
        <time>2025-05-15T16:12:15Z</time>
      </trkpt>
      <trkpt lat="43.64763" lon="1.37621">
        <ele>146</ele>
        <time>2025-05-15T16:12:16Z</time>
      </trkpt>
      <trkpt lat="43.64765" lon="1.37618">
        <ele>146</ele>
        <time>2025-05-15T16:12:17Z</time>
      </trkpt>
      <trkpt lat="43.64767" lon="1.37616">
        <ele>145</ele>
        <time>2025-05-15T16:12:18Z</time>
      </trkpt>
      <trkpt lat="43.6477" lon="1.37614">
        <ele>145</ele>
        <time>2025-05-15T16:12:19Z</time>
      </trkpt>
      <trkpt lat="43.64772" lon="1.37613">
        <ele>146</ele>
        <time>2025-05-15T16:12:20Z</time>
      </trkpt>
      <trkpt lat="43.64774" lon="1.37611">
        <ele>146</ele>
        <time>2025-05-15T16:12:21Z</time>
      </trkpt>
      <trkpt lat="43.64776" lon="1.37609">
        <ele>146</ele>
        <time>2025-05-15T16:12:22Z</time>
      </trkpt>
      <trkpt lat="43.64778" lon="1.37608">
        <ele>146</ele>
        <time>2025-05-15T16:12:23Z</time>
      </trkpt>
      <trkpt lat="43.6478" lon="1.37606">
        <ele>146</ele>
        <time>2025-05-15T16:12:24Z</time>
      </trkpt>
      <trkpt lat="43.64783" lon="1.37605">
        <ele>146</ele>
        <time>2025-05-15T16:12:25Z</time>
      </trkpt>
      <trkpt lat="43.64785" lon="1.37604">
        <ele>146</ele>
        <time>2025-05-15T16:12:26Z</time>
      </trkpt>
      <trkpt lat="43.64787" lon="1.37602">
        <ele>146</ele>
        <time>2025-05-15T16:12:27Z</time>
      </trkpt>
      <trkpt lat="43.6479" lon="1.37601">
        <ele>146</ele>
        <time>2025-05-15T16:12:28Z</time>
      </trkpt>
      <trkpt lat="43.64792" lon="1.376">
        <ele>146</ele>
        <time>2025-05-15T16:12:29Z</time>
      </trkpt>
      <trkpt lat="43.64794" lon="1.37599">
        <ele>146</ele>
        <time>2025-05-15T16:12:30Z</time>
      </trkpt>
      <trkpt lat="43.64797" lon="1.37597">
        <ele>146</ele>
        <time>2025-05-15T16:12:31Z</time>
      </trkpt>
      <trkpt lat="43.64799" lon="1.37597">
        <ele>146</ele>
        <time>2025-05-15T16:12:32Z</time>
      </trkpt>
      <trkpt lat="43.64801" lon="1.37596">
        <ele>146</ele>
        <time>2025-05-15T16:12:33Z</time>
      </trkpt>
      <trkpt lat="43.64804" lon="1.37596">
        <ele>146</ele>
        <time>2025-05-15T16:12:34Z</time>
      </trkpt>
      <trkpt lat="43.64806" lon="1.37596">
        <ele>146</ele>
        <time>2025-05-15T16:12:35Z</time>
      </trkpt>
      <trkpt lat="43.64808" lon="1.37596">
        <ele>145</ele>
        <time>2025-05-15T16:12:36Z</time>
      </trkpt>
      <trkpt lat="43.64808" lon="1.37596">
        <ele>145</ele>
        <time>2025-05-15T16:12:37Z</time>
      </trkpt>
      <trkpt lat="43.64811" lon="1.37596">
        <ele>145</ele>
        <time>2025-05-15T16:12:38Z</time>
      </trkpt>
      <trkpt lat="43.64811" lon="1.37596">
        <ele>145</ele>
        <time>2025-05-15T16:12:39Z</time>
      </trkpt>
      <trkpt lat="43.64814" lon="1.37596">
        <ele>145</ele>
        <time>2025-05-15T16:12:40Z</time>
      </trkpt>
      <trkpt lat="43.64814" lon="1.37596">
        <ele>145</ele>
        <time>2025-05-15T16:12:41Z</time>
      </trkpt>
      <trkpt lat="43.64817" lon="1.37596">
        <ele>145</ele>
        <time>2025-05-15T16:12:42Z</time>
      </trkpt>
      <trkpt lat="43.64819" lon="1.37597">
        <ele>144</ele>
        <time>2025-05-15T16:12:43Z</time>
      </trkpt>
      <trkpt lat="43.64821" lon="1.37597">
        <ele>144</ele>
        <time>2025-05-15T16:12:44Z</time>
      </trkpt>
      <trkpt lat="43.64824" lon="1.37598">
        <ele>144</ele>
        <time>2025-05-15T16:12:45Z</time>
      </trkpt>
      <trkpt lat="43.64826" lon="1.37599">
        <ele>144</ele>
        <time>2025-05-15T16:12:46Z</time>
      </trkpt>
      <trkpt lat="43.64828" lon="1.37601">
        <ele>144</ele>
        <time>2025-05-15T16:12:47Z</time>
      </trkpt>
      <trkpt lat="43.6483" lon="1.37603">
        <ele>144</ele>
        <time>2025-05-15T16:12:48Z</time>
      </trkpt>
      <trkpt lat="43.64832" lon="1.37606">
        <ele>145</ele>
        <time>2025-05-15T16:12:49Z</time>
      </trkpt>
      <trkpt lat="43.64834" lon="1.37608">
        <ele>145</ele>
        <time>2025-05-15T16:12:50Z</time>
      </trkpt>
      <trkpt lat="43.64838" lon="1.37611">
        <ele>145</ele>
        <time>2025-05-15T16:12:51Z</time>
      </trkpt>
      <trkpt lat="43.64841" lon="1.37614">
        <ele>145</ele>
        <time>2025-05-15T16:12:52Z</time>
      </trkpt>
      <trkpt lat="43.64844" lon="1.37617">
        <ele>146</ele>
        <time>2025-05-15T16:12:53Z</time>
      </trkpt>
      <trkpt lat="43.64848" lon="1.37621">
        <ele>146</ele>
        <time>2025-05-15T16:12:54Z</time>
      </trkpt>
      <trkpt lat="43.6485" lon="1.37624">
        <ele>145</ele>
        <time>2025-05-15T16:12:55Z</time>
      </trkpt>
      <trkpt lat="43.64853" lon="1.37626">
        <ele>145</ele>
        <time>2025-05-15T16:12:56Z</time>
      </trkpt>
      <trkpt lat="43.64855" lon="1.37628">
        <ele>145</ele>
        <time>2025-05-15T16:12:57Z</time>
      </trkpt>
      <trkpt lat="43.64858" lon="1.37631">
        <ele>145</ele>
        <time>2025-05-15T16:12:58Z</time>
      </trkpt>
      <trkpt lat="43.6486" lon="1.37634">
        <ele>145</ele>
        <time>2025-05-15T16:12:59Z</time>
      </trkpt>
      <trkpt lat="43.64862" lon="1.37636">
        <ele>145</ele>
        <time>2025-05-15T16:13:00Z</time>
      </trkpt>
      <trkpt lat="43.64865" lon="1.37639">
        <ele>146</ele>
        <time>2025-05-15T16:13:01Z</time>
      </trkpt>
      <trkpt lat="43.64867" lon="1.37642">
        <ele>146</ele>
        <time>2025-05-15T16:13:02Z</time>
      </trkpt>
      <trkpt lat="43.6487" lon="1.37645">
        <ele>146</ele>
        <time>2025-05-15T16:13:03Z</time>
      </trkpt>
      <trkpt lat="43.64872" lon="1.37648">
        <ele>145</ele>
        <time>2025-05-15T16:13:04Z</time>
      </trkpt>
      <trkpt lat="43.64874" lon="1.37652">
        <ele>145</ele>
        <time>2025-05-15T16:13:05Z</time>
      </trkpt>
      <trkpt lat="43.64874" lon="1.37655">
        <ele>145</ele>
        <time>2025-05-15T16:13:06Z</time>
      </trkpt>
      <trkpt lat="43.64875" lon="1.37659">
        <ele>145</ele>
        <time>2025-05-15T16:13:07Z</time>
      </trkpt>
      <trkpt lat="43.64876" lon="1.37663">
        <ele>145</ele>
        <time>2025-05-15T16:13:08Z</time>
      </trkpt>
      <trkpt lat="43.64878" lon="1.37667">
        <ele>145</ele>
        <time>2025-05-15T16:13:09Z</time>
      </trkpt>
      <trkpt lat="43.64879" lon="1.3767">
        <ele>145</ele>
        <time>2025-05-15T16:13:10Z</time>
      </trkpt>
      <trkpt lat="43.6488" lon="1.37674">
        <ele>145</ele>
        <time>2025-05-15T16:13:11Z</time>
      </trkpt>
      <trkpt lat="43.64881" lon="1.37678">
        <ele>145</ele>
        <time>2025-05-15T16:13:12Z</time>
      </trkpt>
      <trkpt lat="43.64882" lon="1.37681">
        <ele>145</ele>
        <time>2025-05-15T16:13:13Z</time>
      </trkpt>
      <trkpt lat="43.64883" lon="1.37685">
        <ele>145</ele>
        <time>2025-05-15T16:13:14Z</time>
      </trkpt>
      <trkpt lat="43.64884" lon="1.37688">
        <ele>145</ele>
        <time>2025-05-15T16:13:15Z</time>
      </trkpt>
      <trkpt lat="43.64884" lon="1.37692">
        <ele>145</ele>
        <time>2025-05-15T16:13:16Z</time>
      </trkpt>
      <trkpt lat="43.64885" lon="1.37696">
        <ele>145</ele>
        <time>2025-05-15T16:13:17Z</time>
      </trkpt>
      <trkpt lat="43.64886" lon="1.37699">
        <ele>145</ele>
        <time>2025-05-15T16:13:18Z</time>
      </trkpt>
      <trkpt lat="43.64886" lon="1.37703">
        <ele>144</ele>
        <time>2025-05-15T16:13:19Z</time>
      </trkpt>
      <trkpt lat="43.64887" lon="1.37706">
        <ele>144</ele>
        <time>2025-05-15T16:13:20Z</time>
      </trkpt>
      <trkpt lat="43.64888" lon="1.3771">
        <ele>144</ele>
        <time>2025-05-15T16:13:21Z</time>
      </trkpt>
      <trkpt lat="43.64889" lon="1.37713">
        <ele>144</ele>
        <time>2025-05-15T16:13:22Z</time>
      </trkpt>
      <trkpt lat="43.6489" lon="1.37716">
        <ele>144</ele>
        <time>2025-05-15T16:13:23Z</time>
      </trkpt>
      <trkpt lat="43.6489" lon="1.37719">
        <ele>145</ele>
        <time>2025-05-15T16:13:24Z</time>
      </trkpt>
      <trkpt lat="43.64891" lon="1.37723">
        <ele>145</ele>
        <time>2025-05-15T16:13:25Z</time>
      </trkpt>
      <trkpt lat="43.64892" lon="1.37726">
        <ele>145</ele>
        <time>2025-05-15T16:13:26Z</time>
      </trkpt>
      <trkpt lat="43.64892" lon="1.37729">
        <ele>145</ele>
        <time>2025-05-15T16:13:27Z</time>
      </trkpt>
      <trkpt lat="43.64893" lon="1.37733">
        <ele>145</ele>
        <time>2025-05-15T16:13:28Z</time>
      </trkpt>
      <trkpt lat="43.64894" lon="1.37737">
        <ele>145</ele>
        <time>2025-05-15T16:13:29Z</time>
      </trkpt>
      <trkpt lat="43.64895" lon="1.3774">
        <ele>145</ele>
        <time>2025-05-15T16:13:30Z</time>
      </trkpt>
      <trkpt lat="43.64896" lon="1.37743">
        <ele>145</ele>
        <time>2025-05-15T16:13:31Z</time>
      </trkpt>
      <trkpt lat="43.64896" lon="1.37746">
        <ele>144</ele>
        <time>2025-05-15T16:13:32Z</time>
      </trkpt>
      <trkpt lat="43.64897" lon="1.3775">
        <ele>144</ele>
        <time>2025-05-15T16:13:33Z</time>
      </trkpt>
      <trkpt lat="43.64898" lon="1.37752">
        <ele>144</ele>
        <time>2025-05-15T16:13:34Z</time>
      </trkpt>
      <trkpt lat="43.64898" lon="1.37755">
        <ele>144</ele>
        <time>2025-05-15T16:13:35Z</time>
      </trkpt>
      <trkpt lat="43.64899" lon="1.37758">
        <ele>144</ele>
        <time>2025-05-15T16:13:36Z</time>
      </trkpt>
      <trkpt lat="43.649" lon="1.37762">
        <ele>144</ele>
        <time>2025-05-15T16:13:37Z</time>
      </trkpt>
      <trkpt lat="43.64901" lon="1.37765">
        <ele>144</ele>
        <time>2025-05-15T16:13:38Z</time>
      </trkpt>
      <trkpt lat="43.64902" lon="1.37768">
        <ele>144</ele>
        <time>2025-05-15T16:13:39Z</time>
      </trkpt>
      <trkpt lat="43.64903" lon="1.37772">
        <ele>144</ele>
        <time>2025-05-15T16:13:40Z</time>
      </trkpt>
      <trkpt lat="43.64903" lon="1.37775">
        <ele>144</ele>
        <time>2025-05-15T16:13:41Z</time>
      </trkpt>
      <trkpt lat="43.64904" lon="1.37779">
        <ele>144</ele>
        <time>2025-05-15T16:13:42Z</time>
      </trkpt>
      <trkpt lat="43.64905" lon="1.37783">
        <ele>144</ele>
        <time>2025-05-15T16:13:43Z</time>
      </trkpt>
      <trkpt lat="43.64906" lon="1.37786">
        <ele>144</ele>
        <time>2025-05-15T16:13:44Z</time>
      </trkpt>
      <trkpt lat="43.64907" lon="1.37789">
        <ele>144</ele>
        <time>2025-05-15T16:13:45Z</time>
      </trkpt>
      <trkpt lat="43.64908" lon="1.37792">
        <ele>144</ele>
        <time>2025-05-15T16:13:46Z</time>
      </trkpt>
      <trkpt lat="43.64908" lon="1.37796">
        <ele>144</ele>
        <time>2025-05-15T16:13:47Z</time>
      </trkpt>
      <trkpt lat="43.64909" lon="1.378">
        <ele>144</ele>
        <time>2025-05-15T16:13:48Z</time>
      </trkpt>
      <trkpt lat="43.64909" lon="1.37804">
        <ele>144</ele>
        <time>2025-05-15T16:13:49Z</time>
      </trkpt>
      <trkpt lat="43.6491" lon="1.37807">
        <ele>144</ele>
        <time>2025-05-15T16:13:50Z</time>
      </trkpt>
      <trkpt lat="43.64912" lon="1.3781">
        <ele>144</ele>
        <time>2025-05-15T16:13:51Z</time>
      </trkpt>
      <trkpt lat="43.64913" lon="1.37813">
        <ele>144</ele>
        <time>2025-05-15T16:13:52Z</time>
      </trkpt>
      <trkpt lat="43.64914" lon="1.37816">
        <ele>144</ele>
        <time>2025-05-15T16:13:53Z</time>
      </trkpt>
      <trkpt lat="43.64915" lon="1.37819">
        <ele>144</ele>
        <time>2025-05-15T16:13:54Z</time>
      </trkpt>
      <trkpt lat="43.64915" lon="1.37822">
        <ele>144</ele>
        <time>2025-05-15T16:13:55Z</time>
      </trkpt>
      <trkpt lat="43.64916" lon="1.37825">
        <ele>144</ele>
        <time>2025-05-15T16:13:56Z</time>
      </trkpt>
      <trkpt lat="43.64917" lon="1.37829">
        <ele>144</ele>
        <time>2025-05-15T16:13:57Z</time>
      </trkpt>
      <trkpt lat="43.64917" lon="1.37832">
        <ele>144</ele>
        <time>2025-05-15T16:13:58Z</time>
      </trkpt>
      <trkpt lat="43.64918" lon="1.37835">
        <ele>144</ele>
        <time>2025-05-15T16:13:59Z</time>
      </trkpt>
      <trkpt lat="43.64919" lon="1.37838">
        <ele>144</ele>
        <time>2025-05-15T16:14:00Z</time>
      </trkpt>
      <trkpt lat="43.6492" lon="1.37842">
        <ele>144</ele>
        <time>2025-05-15T16:14:01Z</time>
      </trkpt>
      <trkpt lat="43.64921" lon="1.37845">
        <ele>144</ele>
        <time>2025-05-15T16:14:02Z</time>
      </trkpt>
      <trkpt lat="43.64922" lon="1.37849">
        <ele>144</ele>
        <time>2025-05-15T16:14:03Z</time>
      </trkpt>
      <trkpt lat="43.64923" lon="1.37853">
        <ele>144</ele>
        <time>2025-05-15T16:14:04Z</time>
      </trkpt>
      <trkpt lat="43.64924" lon="1.37856">
        <ele>144</ele>
        <time>2025-05-15T16:14:05Z</time>
      </trkpt>
      <trkpt lat="43.64924" lon="1.3786">
        <ele>144</ele>
        <time>2025-05-15T16:14:06Z</time>
      </trkpt>
      <trkpt lat="43.64925" lon="1.37863">
        <ele>144</ele>
        <time>2025-05-15T16:14:07Z</time>
      </trkpt>
      <trkpt lat="43.64926" lon="1.37866">
        <ele>144</ele>
        <time>2025-05-15T16:14:08Z</time>
      </trkpt>
      <trkpt lat="43.64927" lon="1.37869">
        <ele>144</ele>
        <time>2025-05-15T16:14:09Z</time>
      </trkpt>
      <trkpt lat="43.64927" lon="1.37872">
        <ele>144</ele>
        <time>2025-05-15T16:14:10Z</time>
      </trkpt>
      <trkpt lat="43.64928" lon="1.37875">
        <ele>144</ele>
        <time>2025-05-15T16:14:11Z</time>
      </trkpt>
      <trkpt lat="43.64929" lon="1.37878">
        <ele>144</ele>
        <time>2025-05-15T16:14:12Z</time>
      </trkpt>
      <trkpt lat="43.6493" lon="1.37882">
        <ele>144</ele>
        <time>2025-05-15T16:14:13Z</time>
      </trkpt>
      <trkpt lat="43.64931" lon="1.37885">
        <ele>144</ele>
        <time>2025-05-15T16:14:14Z</time>
      </trkpt>
      <trkpt lat="43.64932" lon="1.37889">
        <ele>144</ele>
        <time>2025-05-15T16:14:15Z</time>
      </trkpt>
      <trkpt lat="43.64932" lon="1.37892">
        <ele>144</ele>
        <time>2025-05-15T16:14:16Z</time>
      </trkpt>
      <trkpt lat="43.64933" lon="1.37895">
        <ele>144</ele>
        <time>2025-05-15T16:14:17Z</time>
      </trkpt>
      <trkpt lat="43.64934" lon="1.37899">
        <ele>144</ele>
        <time>2025-05-15T16:14:18Z</time>
      </trkpt>
      <trkpt lat="43.64935" lon="1.37902">
        <ele>144</ele>
        <time>2025-05-15T16:14:19Z</time>
      </trkpt>
      <trkpt lat="43.64936" lon="1.37905">
        <ele>144</ele>
        <time>2025-05-15T16:14:20Z</time>
      </trkpt>
      <trkpt lat="43.64937" lon="1.37909">
        <ele>144</ele>
        <time>2025-05-15T16:14:21Z</time>
      </trkpt>
      <trkpt lat="43.64938" lon="1.37912">
        <ele>144</ele>
        <time>2025-05-15T16:14:22Z</time>
      </trkpt>
      <trkpt lat="43.64938" lon="1.37915">
        <ele>144</ele>
        <time>2025-05-15T16:14:23Z</time>
      </trkpt>
      <trkpt lat="43.64938" lon="1.37918">
        <ele>144</ele>
        <time>2025-05-15T16:14:24Z</time>
      </trkpt>
      <trkpt lat="43.64939" lon="1.37921">
        <ele>144</ele>
        <time>2025-05-15T16:14:25Z</time>
      </trkpt>
      <trkpt lat="43.6494" lon="1.37925">
        <ele>144</ele>
        <time>2025-05-15T16:14:26Z</time>
      </trkpt>
      <trkpt lat="43.64941" lon="1.37928">
        <ele>144</ele>
        <time>2025-05-15T16:14:27Z</time>
      </trkpt>
      <trkpt lat="43.64941" lon="1.37931">
        <ele>144</ele>
        <time>2025-05-15T16:14:28Z</time>
      </trkpt>
      <trkpt lat="43.64942" lon="1.37934">
        <ele>144</ele>
        <time>2025-05-15T16:14:29Z</time>
      </trkpt>
      <trkpt lat="43.64942" lon="1.37937">
        <ele>144</ele>
        <time>2025-05-15T16:14:30Z</time>
      </trkpt>
      <trkpt lat="43.64943" lon="1.3794">
        <ele>144</ele>
        <time>2025-05-15T16:14:31Z</time>
      </trkpt>
      <trkpt lat="43.64944" lon="1.37943">
        <ele>144</ele>
        <time>2025-05-15T16:14:32Z</time>
      </trkpt>
      <trkpt lat="43.64944" lon="1.37946">
        <ele>144</ele>
        <time>2025-05-15T16:14:33Z</time>
      </trkpt>
      <trkpt lat="43.64945" lon="1.37949">
        <ele>144</ele>
        <time>2025-05-15T16:14:34Z</time>
      </trkpt>
      <trkpt lat="43.64945" lon="1.37952">
        <ele>143</ele>
        <time>2025-05-15T16:14:35Z</time>
      </trkpt>
      <trkpt lat="43.64946" lon="1.37956">
        <ele>143</ele>
        <time>2025-05-15T16:14:36Z</time>
      </trkpt>
      <trkpt lat="43.64947" lon="1.37959">
        <ele>143</ele>
        <time>2025-05-15T16:14:37Z</time>
      </trkpt>
      <trkpt lat="43.64948" lon="1.37962">
        <ele>143</ele>
        <time>2025-05-15T16:14:38Z</time>
      </trkpt>
      <trkpt lat="43.64948" lon="1.37966">
        <ele>143</ele>
        <time>2025-05-15T16:14:39Z</time>
      </trkpt>
      <trkpt lat="43.64948" lon="1.37969">
        <ele>143</ele>
        <time>2025-05-15T16:14:40Z</time>
      </trkpt>
      <trkpt lat="43.64949" lon="1.37973">
        <ele>143</ele>
        <time>2025-05-15T16:14:41Z</time>
      </trkpt>
      <trkpt lat="43.64949" lon="1.37977">
        <ele>143</ele>
        <time>2025-05-15T16:14:42Z</time>
      </trkpt>
      <trkpt lat="43.6495" lon="1.3798">
        <ele>143</ele>
        <time>2025-05-15T16:14:43Z</time>
      </trkpt>
      <trkpt lat="43.64951" lon="1.37984">
        <ele>143</ele>
        <time>2025-05-15T16:14:44Z</time>
      </trkpt>
      <trkpt lat="43.64952" lon="1.37987">
        <ele>143</ele>
        <time>2025-05-15T16:14:45Z</time>
      </trkpt>
      <trkpt lat="43.64954" lon="1.37989">
        <ele>143</ele>
        <time>2025-05-15T16:14:46Z</time>
      </trkpt>
      <trkpt lat="43.64955" lon="1.37991">
        <ele>142</ele>
        <time>2025-05-15T16:14:47Z</time>
      </trkpt>
      <trkpt lat="43.64956" lon="1.37994">
        <ele>142</ele>
        <time>2025-05-15T16:14:48Z</time>
      </trkpt>
      <trkpt lat="43.64957" lon="1.37996">
        <ele>143</ele>
        <time>2025-05-15T16:14:49Z</time>
      </trkpt>
      <trkpt lat="43.64958" lon="1.37999">
        <ele>143</ele>
        <time>2025-05-15T16:14:50Z</time>
      </trkpt>
      <trkpt lat="43.64959" lon="1.38002">
        <ele>143</ele>
        <time>2025-05-15T16:14:51Z</time>
      </trkpt>
      <trkpt lat="43.64961" lon="1.38005">
        <ele>143</ele>
        <time>2025-05-15T16:14:52Z</time>
      </trkpt>
      <trkpt lat="43.64962" lon="1.38008">
        <ele>143</ele>
        <time>2025-05-15T16:14:53Z</time>
      </trkpt>
      <trkpt lat="43.64963" lon="1.38011">
        <ele>143</ele>
        <time>2025-05-15T16:14:54Z</time>
      </trkpt>
      <trkpt lat="43.64965" lon="1.38015">
        <ele>143</ele>
        <time>2025-05-15T16:14:55Z</time>
      </trkpt>
      <trkpt lat="43.64966" lon="1.38018">
        <ele>143</ele>
        <time>2025-05-15T16:14:56Z</time>
      </trkpt>
      <trkpt lat="43.64967" lon="1.38021">
        <ele>143</ele>
        <time>2025-05-15T16:14:57Z</time>
      </trkpt>
      <trkpt lat="43.64968" lon="1.38025">
        <ele>143</ele>
        <time>2025-05-15T16:14:58Z</time>
      </trkpt>
      <trkpt lat="43.64969" lon="1.38028">
        <ele>143</ele>
        <time>2025-05-15T16:14:59Z</time>
      </trkpt>
      <trkpt lat="43.6497" lon="1.38031">
        <ele>143</ele>
        <time>2025-05-15T16:15:00Z</time>
      </trkpt>
      <trkpt lat="43.64971" lon="1.38034">
        <ele>143</ele>
        <time>2025-05-15T16:15:01Z</time>
      </trkpt>
      <trkpt lat="43.64972" lon="1.38036">
        <ele>143</ele>
        <time>2025-05-15T16:15:02Z</time>
      </trkpt>
      <trkpt lat="43.64973" lon="1.38039">
        <ele>143</ele>
        <time>2025-05-15T16:15:03Z</time>
      </trkpt>
      <trkpt lat="43.64974" lon="1.38042">
        <ele>143</ele>
        <time>2025-05-15T16:15:04Z</time>
      </trkpt>
      <trkpt lat="43.64975" lon="1.38045">
        <ele>143</ele>
        <time>2025-05-15T16:15:05Z</time>
      </trkpt>
      <trkpt lat="43.64975" lon="1.38048">
        <ele>143</ele>
        <time>2025-05-15T16:15:06Z</time>
      </trkpt>
      <trkpt lat="43.64976" lon="1.38051">
        <ele>143</ele>
        <time>2025-05-15T16:15:07Z</time>
      </trkpt>
      <trkpt lat="43.64977" lon="1.38054">
        <ele>143</ele>
        <time>2025-05-15T16:15:08Z</time>
      </trkpt>
      <trkpt lat="43.64979" lon="1.38057">
        <ele>143</ele>
        <time>2025-05-15T16:15:09Z</time>
      </trkpt>
      <trkpt lat="43.6498" lon="1.3806">
        <ele>143</ele>
        <time>2025-05-15T16:15:10Z</time>
      </trkpt>
      <trkpt lat="43.64981" lon="1.38063">
        <ele>144</ele>
        <time>2025-05-15T16:15:11Z</time>
      </trkpt>
      <trkpt lat="43.64982" lon="1.38066">
        <ele>144</ele>
        <time>2025-05-15T16:15:12Z</time>
      </trkpt>
      <trkpt lat="43.64983" lon="1.38068">
        <ele>143</ele>
        <time>2025-05-15T16:15:13Z</time>
      </trkpt>
      <trkpt lat="43.64984" lon="1.38071">
        <ele>143</ele>
        <time>2025-05-15T16:15:14Z</time>
      </trkpt>
      <trkpt lat="43.64985" lon="1.38074">
        <ele>143</ele>
        <time>2025-05-15T16:15:15Z</time>
      </trkpt>
      <trkpt lat="43.64986" lon="1.38077">
        <ele>143</ele>
        <time>2025-05-15T16:15:16Z</time>
      </trkpt>
      <trkpt lat="43.64987" lon="1.3808">
        <ele>143</ele>
        <time>2025-05-15T16:15:17Z</time>
      </trkpt>
      <trkpt lat="43.64988" lon="1.38083">
        <ele>143</ele>
        <time>2025-05-15T16:15:18Z</time>
      </trkpt>
      <trkpt lat="43.64989" lon="1.38087">
        <ele>143</ele>
        <time>2025-05-15T16:15:19Z</time>
      </trkpt>
      <trkpt lat="43.6499" lon="1.38089">
        <ele>143</ele>
        <time>2025-05-15T16:15:20Z</time>
      </trkpt>
      <trkpt lat="43.64991" lon="1.38093">
        <ele>144</ele>
        <time>2025-05-15T16:15:21Z</time>
      </trkpt>
      <trkpt lat="43.64992" lon="1.38096">
        <ele>144</ele>
        <time>2025-05-15T16:15:22Z</time>
      </trkpt>
      <trkpt lat="43.64993" lon="1.381">
        <ele>144</ele>
        <time>2025-05-15T16:15:23Z</time>
      </trkpt>
      <trkpt lat="43.64993" lon="1.38103">
        <ele>144</ele>
        <time>2025-05-15T16:15:24Z</time>
      </trkpt>
      <trkpt lat="43.64994" lon="1.38106">
        <ele>144</ele>
        <time>2025-05-15T16:15:25Z</time>
      </trkpt>
      <trkpt lat="43.64995" lon="1.38109">
        <ele>144</ele>
        <time>2025-05-15T16:15:26Z</time>
      </trkpt>
      <trkpt lat="43.64996" lon="1.38113">
        <ele>144</ele>
        <time>2025-05-15T16:15:27Z</time>
      </trkpt>
      <trkpt lat="43.64997" lon="1.38116">
        <ele>144</ele>
        <time>2025-05-15T16:15:28Z</time>
      </trkpt>
      <trkpt lat="43.64998" lon="1.38119">
        <ele>144</ele>
        <time>2025-05-15T16:15:29Z</time>
      </trkpt>
      <trkpt lat="43.64998" lon="1.38123">
        <ele>144</ele>
        <time>2025-05-15T16:15:30Z</time>
      </trkpt>
      <trkpt lat="43.64999" lon="1.38127">
        <ele>144</ele>
        <time>2025-05-15T16:15:31Z</time>
      </trkpt>
      <trkpt lat="43.65" lon="1.3813">
        <ele>144</ele>
        <time>2025-05-15T16:15:32Z</time>
      </trkpt>
      <trkpt lat="43.65001" lon="1.38134">
        <ele>144</ele>
        <time>2025-05-15T16:15:33Z</time>
      </trkpt>
      <trkpt lat="43.65002" lon="1.38138">
        <ele>144</ele>
        <time>2025-05-15T16:15:34Z</time>
      </trkpt>
      <trkpt lat="43.65002" lon="1.38142">
        <ele>144</ele>
        <time>2025-05-15T16:15:35Z</time>
      </trkpt>
      <trkpt lat="43.65002" lon="1.38146">
        <ele>144</ele>
        <time>2025-05-15T16:15:36Z</time>
      </trkpt>
      <trkpt lat="43.65001" lon="1.38149">
        <ele>144</ele>
        <time>2025-05-15T16:15:37Z</time>
      </trkpt>
      <trkpt lat="43.64999" lon="1.38153">
        <ele>144</ele>
        <time>2025-05-15T16:15:38Z</time>
      </trkpt>
      <trkpt lat="43.64998" lon="1.38156">
        <ele>144</ele>
        <time>2025-05-15T16:15:39Z</time>
      </trkpt>
      <trkpt lat="43.64997" lon="1.3816">
        <ele>144</ele>
        <time>2025-05-15T16:15:40Z</time>
      </trkpt>
      <trkpt lat="43.64996" lon="1.38163">
        <ele>144</ele>
        <time>2025-05-15T16:15:41Z</time>
      </trkpt>
      <trkpt lat="43.64995" lon="1.38166">
        <ele>144</ele>
        <time>2025-05-15T16:15:42Z</time>
      </trkpt>
      <trkpt lat="43.64994" lon="1.38169">
        <ele>144</ele>
        <time>2025-05-15T16:15:43Z</time>
      </trkpt>
      <trkpt lat="43.64993" lon="1.38172">
        <ele>144</ele>
        <time>2025-05-15T16:15:44Z</time>
      </trkpt>
      <trkpt lat="43.64993" lon="1.38172">
        <ele>144</ele>
        <time>2025-05-15T16:15:45Z</time>
      </trkpt>
      <trkpt lat="43.64993" lon="1.38176">
        <ele>144</ele>
        <time>2025-05-15T16:15:46Z</time>
      </trkpt>
      <trkpt lat="43.64994" lon="1.38179">
        <ele>144</ele>
        <time>2025-05-15T16:15:47Z</time>
      </trkpt>
      <trkpt lat="43.64995" lon="1.38182">
        <ele>144</ele>
        <time>2025-05-15T16:15:48Z</time>
      </trkpt>
      <trkpt lat="43.64997" lon="1.38185">
        <ele>144</ele>
        <time>2025-05-15T16:15:49Z</time>
      </trkpt>
      <trkpt lat="43.64999" lon="1.38186">
        <ele>144</ele>
        <time>2025-05-15T16:15:50Z</time>
      </trkpt>
      <trkpt lat="43.65002" lon="1.38189">
        <ele>144</ele>
        <time>2025-05-15T16:15:51Z</time>
      </trkpt>
      <trkpt lat="43.65004" lon="1.38192">
        <ele>144</ele>
        <time>2025-05-15T16:15:52Z</time>
      </trkpt>
      <trkpt lat="43.65006" lon="1.38195">
        <ele>144</ele>
        <time>2025-05-15T16:15:53Z</time>
      </trkpt>
      <trkpt lat="43.65007" lon="1.38198">
        <ele>144</ele>
        <time>2025-05-15T16:15:54Z</time>
      </trkpt>
      <trkpt lat="43.65009" lon="1.38201">
        <ele>144</ele>
        <time>2025-05-15T16:15:55Z</time>
      </trkpt>
      <trkpt lat="43.6501" lon="1.38204">
        <ele>144</ele>
        <time>2025-05-15T16:15:56Z</time>
      </trkpt>
      <trkpt lat="43.65011" lon="1.38208">
        <ele>144</ele>
        <time>2025-05-15T16:15:57Z</time>
      </trkpt>
      <trkpt lat="43.65012" lon="1.38211">
        <ele>145</ele>
        <time>2025-05-15T16:15:58Z</time>
      </trkpt>
      <trkpt lat="43.65013" lon="1.38214">
        <ele>145</ele>
        <time>2025-05-15T16:15:59Z</time>
      </trkpt>
      <trkpt lat="43.65014" lon="1.38217">
        <ele>145</ele>
        <time>2025-05-15T16:16:00Z</time>
      </trkpt>
      <trkpt lat="43.65015" lon="1.38221">
        <ele>145</ele>
        <time>2025-05-15T16:16:01Z</time>
      </trkpt>
      <trkpt lat="43.65016" lon="1.38224">
        <ele>145</ele>
        <time>2025-05-15T16:16:02Z</time>
      </trkpt>
      <trkpt lat="43.65017" lon="1.38227">
        <ele>144</ele>
        <time>2025-05-15T16:16:03Z</time>
      </trkpt>
      <trkpt lat="43.65019" lon="1.3823">
        <ele>144</ele>
        <time>2025-05-15T16:16:04Z</time>
      </trkpt>
      <trkpt lat="43.6502" lon="1.38233">
        <ele>144</ele>
        <time>2025-05-15T16:16:05Z</time>
      </trkpt>
      <trkpt lat="43.65021" lon="1.38236">
        <ele>144</ele>
        <time>2025-05-15T16:16:06Z</time>
      </trkpt>
      <trkpt lat="43.65023" lon="1.3824">
        <ele>144</ele>
        <time>2025-05-15T16:16:07Z</time>
      </trkpt>
      <trkpt lat="43.65024" lon="1.38243">
        <ele>144</ele>
        <time>2025-05-15T16:16:08Z</time>
      </trkpt>
      <trkpt lat="43.65025" lon="1.38247">
        <ele>144</ele>
        <time>2025-05-15T16:16:09Z</time>
      </trkpt>
      <trkpt lat="43.65026" lon="1.3825">
        <ele>144</ele>
        <time>2025-05-15T16:16:10Z</time>
      </trkpt>
      <trkpt lat="43.65027" lon="1.38253">
        <ele>144</ele>
        <time>2025-05-15T16:16:11Z</time>
      </trkpt>
      <trkpt lat="43.65027" lon="1.38257">
        <ele>144</ele>
        <time>2025-05-15T16:16:12Z</time>
      </trkpt>
      <trkpt lat="43.65028" lon="1.3826">
        <ele>144</ele>
        <time>2025-05-15T16:16:13Z</time>
      </trkpt>
      <trkpt lat="43.65028" lon="1.38263">
        <ele>144</ele>
        <time>2025-05-15T16:16:14Z</time>
      </trkpt>
      <trkpt lat="43.65029" lon="1.38267">
        <ele>144</ele>
        <time>2025-05-15T16:16:15Z</time>
      </trkpt>
      <trkpt lat="43.6503" lon="1.3827">
        <ele>144</ele>
        <time>2025-05-15T16:16:16Z</time>
      </trkpt>
      <trkpt lat="43.65031" lon="1.38273">
        <ele>144</ele>
        <time>2025-05-15T16:16:17Z</time>
      </trkpt>
      <trkpt lat="43.65032" lon="1.38276">
        <ele>144</ele>
        <time>2025-05-15T16:16:18Z</time>
      </trkpt>
      <trkpt lat="43.65033" lon="1.38279">
        <ele>144</ele>
        <time>2025-05-15T16:16:19Z</time>
      </trkpt>
      <trkpt lat="43.65034" lon="1.38283">
        <ele>144</ele>
        <time>2025-05-15T16:16:20Z</time>
      </trkpt>
      <trkpt lat="43.65035" lon="1.38286">
        <ele>144</ele>
        <time>2025-05-15T16:16:21Z</time>
      </trkpt>
      <trkpt lat="43.65036" lon="1.38289">
        <ele>144</ele>
        <time>2025-05-15T16:16:22Z</time>
      </trkpt>
      <trkpt lat="43.65036" lon="1.38293">
        <ele>144</ele>
        <time>2025-05-15T16:16:23Z</time>
      </trkpt>
      <trkpt lat="43.65037" lon="1.38296">
        <ele>144</ele>
        <time>2025-05-15T16:16:24Z</time>
      </trkpt>
      <trkpt lat="43.65037" lon="1.383">
        <ele>144</ele>
        <time>2025-05-15T16:16:25Z</time>
      </trkpt>
      <trkpt lat="43.65038" lon="1.38304">
        <ele>144</ele>
        <time>2025-05-15T16:16:26Z</time>
      </trkpt>
      <trkpt lat="43.65039" lon="1.38307">
        <ele>144</ele>
        <time>2025-05-15T16:16:27Z</time>
      </trkpt>
      <trkpt lat="43.6504" lon="1.3831">
        <ele>144</ele>
        <time>2025-05-15T16:16:28Z</time>
      </trkpt>
      <trkpt lat="43.65042" lon="1.38313">
        <ele>144</ele>
        <time>2025-05-15T16:16:29Z</time>
      </trkpt>
      <trkpt lat="43.65043" lon="1.38317">
        <ele>144</ele>
        <time>2025-05-15T16:16:30Z</time>
      </trkpt>
      <trkpt lat="43.65044" lon="1.3832">
        <ele>144</ele>
        <time>2025-05-15T16:16:31Z</time>
      </trkpt>
      <trkpt lat="43.65045" lon="1.38324">
        <ele>144</ele>
        <time>2025-05-15T16:16:32Z</time>
      </trkpt>
      <trkpt lat="43.65046" lon="1.38327">
        <ele>144</ele>
        <time>2025-05-15T16:16:33Z</time>
      </trkpt>
      <trkpt lat="43.65046" lon="1.3833">
        <ele>144</ele>
        <time>2025-05-15T16:16:34Z</time>
      </trkpt>
      <trkpt lat="43.65048" lon="1.38333">
        <ele>144</ele>
        <time>2025-05-15T16:16:35Z</time>
      </trkpt>
      <trkpt lat="43.65049" lon="1.38337">
        <ele>144</ele>
        <time>2025-05-15T16:16:36Z</time>
      </trkpt>
      <trkpt lat="43.6505" lon="1.3834">
        <ele>144</ele>
        <time>2025-05-15T16:16:37Z</time>
      </trkpt>
      <trkpt lat="43.65052" lon="1.38343">
        <ele>144</ele>
        <time>2025-05-15T16:16:38Z</time>
      </trkpt>
      <trkpt lat="43.65053" lon="1.38346">
        <ele>144</ele>
        <time>2025-05-15T16:16:39Z</time>
      </trkpt>
      <trkpt lat="43.65054" lon="1.38349">
        <ele>144</ele>
        <time>2025-05-15T16:16:40Z</time>
      </trkpt>
      <trkpt lat="43.65055" lon="1.38352">
        <ele>144</ele>
        <time>2025-05-15T16:16:41Z</time>
      </trkpt>
      <trkpt lat="43.65056" lon="1.38355">
        <ele>144</ele>
        <time>2025-05-15T16:16:42Z</time>
      </trkpt>
      <trkpt lat="43.65057" lon="1.38358">
        <ele>144</ele>
        <time>2025-05-15T16:16:43Z</time>
      </trkpt>
      <trkpt lat="43.65057" lon="1.38362">
        <ele>144</ele>
        <time>2025-05-15T16:16:44Z</time>
      </trkpt>
      <trkpt lat="43.65059" lon="1.38366">
        <ele>144</ele>
        <time>2025-05-15T16:16:45Z</time>
      </trkpt>
      <trkpt lat="43.6506" lon="1.38369">
        <ele>144</ele>
        <time>2025-05-15T16:16:46Z</time>
      </trkpt>
      <trkpt lat="43.65061" lon="1.38373">
        <ele>144</ele>
        <time>2025-05-15T16:16:47Z</time>
      </trkpt>
      <trkpt lat="43.65062" lon="1.38377">
        <ele>144</ele>
        <time>2025-05-15T16:16:48Z</time>
      </trkpt>
      <trkpt lat="43.65062" lon="1.3838">
        <ele>144</ele>
        <time>2025-05-15T16:16:49Z</time>
      </trkpt>
      <trkpt lat="43.65064" lon="1.38383">
        <ele>144</ele>
        <time>2025-05-15T16:16:50Z</time>
      </trkpt>
      <trkpt lat="43.65065" lon="1.38385">
        <ele>144</ele>
        <time>2025-05-15T16:16:51Z</time>
      </trkpt>
      <trkpt lat="43.65066" lon="1.38388">
        <ele>144</ele>
        <time>2025-05-15T16:16:52Z</time>
      </trkpt>
      <trkpt lat="43.65068" lon="1.38392">
        <ele>144</ele>
        <time>2025-05-15T16:16:53Z</time>
      </trkpt>
      <trkpt lat="43.65069" lon="1.38395">
        <ele>144</ele>
        <time>2025-05-15T16:16:54Z</time>
      </trkpt>
      <trkpt lat="43.65069" lon="1.38399">
        <ele>144</ele>
        <time>2025-05-15T16:16:55Z</time>
      </trkpt>
      <trkpt lat="43.6507" lon="1.38402">
        <ele>144</ele>
        <time>2025-05-15T16:16:56Z</time>
      </trkpt>
      <trkpt lat="43.65071" lon="1.38405">
        <ele>144</ele>
        <time>2025-05-15T16:16:57Z</time>
      </trkpt>
      <trkpt lat="43.65072" lon="1.38409">
        <ele>144</ele>
        <time>2025-05-15T16:16:58Z</time>
      </trkpt>
      <trkpt lat="43.65072" lon="1.38413">
        <ele>144</ele>
        <time>2025-05-15T16:16:59Z</time>
      </trkpt>
      <trkpt lat="43.65073" lon="1.38416">
        <ele>144</ele>
        <time>2025-05-15T16:17:00Z</time>
      </trkpt>
      <trkpt lat="43.65073" lon="1.38419">
        <ele>144</ele>
        <time>2025-05-15T16:17:01Z</time>
      </trkpt>
      <trkpt lat="43.65074" lon="1.38422">
        <ele>144</ele>
        <time>2025-05-15T16:17:02Z</time>
      </trkpt>
      <trkpt lat="43.65075" lon="1.38425">
        <ele>144</ele>
        <time>2025-05-15T16:17:03Z</time>
      </trkpt>
      <trkpt lat="43.65076" lon="1.38429">
        <ele>144</ele>
        <time>2025-05-15T16:17:04Z</time>
      </trkpt>
      <trkpt lat="43.65077" lon="1.38432">
        <ele>144</ele>
        <time>2025-05-15T16:17:05Z</time>
      </trkpt>
      <trkpt lat="43.65078" lon="1.38434">
        <ele>144</ele>
        <time>2025-05-15T16:17:06Z</time>
      </trkpt>
      <trkpt lat="43.65079" lon="1.38436">
        <ele>144</ele>
        <time>2025-05-15T16:17:07Z</time>
      </trkpt>
      <trkpt lat="43.65079" lon="1.38436">
        <ele>144</ele>
        <time>2025-05-15T16:17:08Z</time>
      </trkpt>
      <trkpt lat="43.65081" lon="1.38439">
        <ele>144</ele>
        <time>2025-05-15T16:17:09Z</time>
      </trkpt>
      <trkpt lat="43.65081" lon="1.38439">
        <ele>144</ele>
        <time>2025-05-15T16:17:10Z</time>
      </trkpt>
      <trkpt lat="43.65081" lon="1.38439">
        <ele>144</ele>
        <time>2025-05-15T16:17:11Z</time>
      </trkpt>
      <trkpt lat="43.65081" lon="1.38439">
        <ele>144</ele>
        <time>2025-05-15T16:17:12Z</time>
      </trkpt>
      <trkpt lat="43.65082" lon="1.38441">
        <ele>143</ele>
        <time>2025-05-15T16:17:13Z</time>
      </trkpt>
      <trkpt lat="43.65082" lon="1.38441">
        <ele>143</ele>
        <time>2025-05-15T16:17:14Z</time>
      </trkpt>
      <trkpt lat="43.65082" lon="1.38441">
        <ele>143</ele>
        <time>2025-05-15T16:17:15Z</time>
      </trkpt>
      <trkpt lat="43.65082" lon="1.38441">
        <ele>144</ele>
        <time>2025-05-15T16:17:16Z</time>
      </trkpt>
      <trkpt lat="43.65082" lon="1.38441">
        <ele>144</ele>
        <time>2025-05-15T16:17:17Z</time>
      </trkpt>
      <trkpt lat="43.65082" lon="1.38441">
        <ele>144</ele>
        <time>2025-05-15T16:17:18Z</time>
      </trkpt>
      <trkpt lat="43.65082" lon="1.38441">
        <ele>144</ele>
        <time>2025-05-15T16:17:19Z</time>
      </trkpt>
      <trkpt lat="43.65082" lon="1.38441">
        <ele>144</ele>
        <time>2025-05-15T16:17:20Z</time>
      </trkpt>
      <trkpt lat="43.65082" lon="1.38441">
        <ele>143</ele>
        <time>2025-05-15T16:17:21Z</time>
      </trkpt>
      <trkpt lat="43.65082" lon="1.38441">
        <ele>143</ele>
        <time>2025-05-15T16:17:22Z</time>
      </trkpt>
      <trkpt lat="43.65082" lon="1.38441">
        <ele>143</ele>
        <time>2025-05-15T16:17:23Z</time>
      </trkpt>
      <trkpt lat="43.65082" lon="1.38441">
        <ele>143</ele>
        <time>2025-05-15T16:17:24Z</time>
      </trkpt>
      <trkpt lat="43.65082" lon="1.38442">
        <ele>143</ele>
        <time>2025-05-15T16:17:25Z</time>
      </trkpt>
      <trkpt lat="43.65083" lon="1.38452">
        <ele>144</ele>
        <time>2025-05-15T16:17:28Z</time>
      </trkpt>
      <trkpt lat="43.65083" lon="1.38455">
        <ele>144</ele>
        <time>2025-05-15T16:17:29Z</time>
      </trkpt>
      <trkpt lat="43.65084" lon="1.38458">
        <ele>144</ele>
        <time>2025-05-15T16:17:30Z</time>
      </trkpt>
      <trkpt lat="43.65085" lon="1.38462">
        <ele>144</ele>
        <time>2025-05-15T16:17:31Z</time>
      </trkpt>
      <trkpt lat="43.65087" lon="1.38465">
        <ele>144</ele>
        <time>2025-05-15T16:17:32Z</time>
      </trkpt>
      <trkpt lat="43.65088" lon="1.38469">
        <ele>144</ele>
        <time>2025-05-15T16:17:33Z</time>
      </trkpt>
      <trkpt lat="43.65089" lon="1.38472">
        <ele>144</ele>
        <time>2025-05-15T16:17:34Z</time>
      </trkpt>
      <trkpt lat="43.6509" lon="1.38476">
        <ele>144</ele>
        <time>2025-05-15T16:17:35Z</time>
      </trkpt>
      <trkpt lat="43.65092" lon="1.38479">
        <ele>144</ele>
        <time>2025-05-15T16:17:36Z</time>
      </trkpt>
      <trkpt lat="43.65093" lon="1.38482">
        <ele>144</ele>
        <time>2025-05-15T16:17:37Z</time>
      </trkpt>
      <trkpt lat="43.65095" lon="1.38486">
        <ele>144</ele>
        <time>2025-05-15T16:17:38Z</time>
      </trkpt>
      <trkpt lat="43.65096" lon="1.38489">
        <ele>144</ele>
        <time>2025-05-15T16:17:39Z</time>
      </trkpt>
      <trkpt lat="43.65098" lon="1.38493">
        <ele>144</ele>
        <time>2025-05-15T16:17:40Z</time>
      </trkpt>
      <trkpt lat="43.65099" lon="1.38496">
        <ele>144</ele>
        <time>2025-05-15T16:17:41Z</time>
      </trkpt>
      <trkpt lat="43.651" lon="1.385">
        <ele>144</ele>
        <time>2025-05-15T16:17:42Z</time>
      </trkpt>
      <trkpt lat="43.65101" lon="1.38504">
        <ele>144</ele>
        <time>2025-05-15T16:17:43Z</time>
      </trkpt>
      <trkpt lat="43.65102" lon="1.38507">
        <ele>144</ele>
        <time>2025-05-15T16:17:44Z</time>
      </trkpt>
      <trkpt lat="43.65101" lon="1.38511">
        <ele>143</ele>
        <time>2025-05-15T16:17:45Z</time>
      </trkpt>
      <trkpt lat="43.651" lon="1.38515">
        <ele>143</ele>
        <time>2025-05-15T16:17:46Z</time>
      </trkpt>
      <trkpt lat="43.65099" lon="1.38519">
        <ele>143</ele>
        <time>2025-05-15T16:17:47Z</time>
      </trkpt>
      <trkpt lat="43.65098" lon="1.38522">
        <ele>143</ele>
        <time>2025-05-15T16:17:48Z</time>
      </trkpt>
      <trkpt lat="43.65097" lon="1.38526">
        <ele>143</ele>
        <time>2025-05-15T16:17:49Z</time>
      </trkpt>
      <trkpt lat="43.65097" lon="1.38529">
        <ele>143</ele>
        <time>2025-05-15T16:17:50Z</time>
      </trkpt>
      <trkpt lat="43.65098" lon="1.38533">
        <ele>143</ele>
        <time>2025-05-15T16:17:51Z</time>
      </trkpt>
      <trkpt lat="43.65099" lon="1.38536">
        <ele>143</ele>
        <time>2025-05-15T16:17:52Z</time>
      </trkpt>
      <trkpt lat="43.65101" lon="1.38539">
        <ele>143</ele>
        <time>2025-05-15T16:17:53Z</time>
      </trkpt>
      <trkpt lat="43.65104" lon="1.38541">
        <ele>144</ele>
        <time>2025-05-15T16:17:54Z</time>
      </trkpt>
      <trkpt lat="43.65106" lon="1.38542">
        <ele>144</ele>
        <time>2025-05-15T16:17:55Z</time>
      </trkpt>
      <trkpt lat="43.65109" lon="1.38543">
        <ele>144</ele>
        <time>2025-05-15T16:17:56Z</time>
      </trkpt>
      <trkpt lat="43.65112" lon="1.38544">
        <ele>144</ele>
        <time>2025-05-15T16:17:57Z</time>
      </trkpt>
      <trkpt lat="43.65114" lon="1.38546">
        <ele>144</ele>
        <time>2025-05-15T16:17:58Z</time>
      </trkpt>
      <trkpt lat="43.65117" lon="1.38548">
        <ele>144</ele>
        <time>2025-05-15T16:17:59Z</time>
      </trkpt>
      <trkpt lat="43.65118" lon="1.38552">
        <ele>143</ele>
        <time>2025-05-15T16:18:00Z</time>
      </trkpt>
      <trkpt lat="43.65118" lon="1.38555">
        <ele>143</ele>
        <time>2025-05-15T16:18:01Z</time>
      </trkpt>
      <trkpt lat="43.65119" lon="1.38559">
        <ele>143</ele>
        <time>2025-05-15T16:18:02Z</time>
      </trkpt>
      <trkpt lat="43.6512" lon="1.38562">
        <ele>143</ele>
        <time>2025-05-15T16:18:03Z</time>
      </trkpt>
      <trkpt lat="43.65121" lon="1.38566">
        <ele>143</ele>
        <time>2025-05-15T16:18:04Z</time>
      </trkpt>
      <trkpt lat="43.65122" lon="1.38569">
        <ele>143</ele>
        <time>2025-05-15T16:18:05Z</time>
      </trkpt>
      <trkpt lat="43.65123" lon="1.38573">
        <ele>143</ele>
        <time>2025-05-15T16:18:06Z</time>
      </trkpt>
      <trkpt lat="43.65123" lon="1.38577">
        <ele>143</ele>
        <time>2025-05-15T16:18:07Z</time>
      </trkpt>
      <trkpt lat="43.65124" lon="1.38581">
        <ele>143</ele>
        <time>2025-05-15T16:18:08Z</time>
      </trkpt>
      <trkpt lat="43.65125" lon="1.38584">
        <ele>143</ele>
        <time>2025-05-15T16:18:09Z</time>
      </trkpt>
      <trkpt lat="43.65126" lon="1.38587">
        <ele>142</ele>
        <time>2025-05-15T16:18:10Z</time>
      </trkpt>
      <trkpt lat="43.65126" lon="1.38591">
        <ele>142</ele>
        <time>2025-05-15T16:18:11Z</time>
      </trkpt>
      <trkpt lat="43.65127" lon="1.38594">
        <ele>142</ele>
        <time>2025-05-15T16:18:12Z</time>
      </trkpt>
      <trkpt lat="43.65128" lon="1.38598">
        <ele>142</ele>
        <time>2025-05-15T16:18:13Z</time>
      </trkpt>
      <trkpt lat="43.65129" lon="1.38601">
        <ele>142</ele>
        <time>2025-05-15T16:18:14Z</time>
      </trkpt>
      <trkpt lat="43.65129" lon="1.38605">
        <ele>142</ele>
        <time>2025-05-15T16:18:15Z</time>
      </trkpt>
      <trkpt lat="43.6513" lon="1.38608">
        <ele>142</ele>
        <time>2025-05-15T16:18:16Z</time>
      </trkpt>
      <trkpt lat="43.65131" lon="1.38612">
        <ele>142</ele>
        <time>2025-05-15T16:18:17Z</time>
      </trkpt>
      <trkpt lat="43.65132" lon="1.38615">
        <ele>142</ele>
        <time>2025-05-15T16:18:18Z</time>
      </trkpt>
      <trkpt lat="43.65132" lon="1.38619">
        <ele>143</ele>
        <time>2025-05-15T16:18:19Z</time>
      </trkpt>
      <trkpt lat="43.65133" lon="1.38623">
        <ele>143</ele>
        <time>2025-05-15T16:18:20Z</time>
      </trkpt>
      <trkpt lat="43.65134" lon="1.38626">
        <ele>143</ele>
        <time>2025-05-15T16:18:21Z</time>
      </trkpt>
      <trkpt lat="43.65135" lon="1.38629">
        <ele>143</ele>
        <time>2025-05-15T16:18:22Z</time>
      </trkpt>
      <trkpt lat="43.65135" lon="1.38632">
        <ele>143</ele>
        <time>2025-05-15T16:18:23Z</time>
      </trkpt>
      <trkpt lat="43.65137" lon="1.38635">
        <ele>143</ele>
        <time>2025-05-15T16:18:24Z</time>
      </trkpt>
      <trkpt lat="43.65138" lon="1.38638">
        <ele>143</ele>
        <time>2025-05-15T16:18:25Z</time>
      </trkpt>
      <trkpt lat="43.65139" lon="1.38641">
        <ele>143</ele>
        <time>2025-05-15T16:18:26Z</time>
      </trkpt>
      <trkpt lat="43.65141" lon="1.38644">
        <ele>143</ele>
        <time>2025-05-15T16:18:27Z</time>
      </trkpt>
      <trkpt lat="43.65142" lon="1.38647">
        <ele>143</ele>
        <time>2025-05-15T16:18:28Z</time>
      </trkpt>
      <trkpt lat="43.65143" lon="1.3865">
        <ele>143</ele>
        <time>2025-05-15T16:18:29Z</time>
      </trkpt>
      <trkpt lat="43.65144" lon="1.38654">
        <ele>143</ele>
        <time>2025-05-15T16:18:30Z</time>
      </trkpt>
      <trkpt lat="43.65146" lon="1.38657">
        <ele>143</ele>
        <time>2025-05-15T16:18:31Z</time>
      </trkpt>
      <trkpt lat="43.65146" lon="1.38661">
        <ele>143</ele>
        <time>2025-05-15T16:18:32Z</time>
      </trkpt>
      <trkpt lat="43.65147" lon="1.38665">
        <ele>142</ele>
        <time>2025-05-15T16:18:33Z</time>
      </trkpt>
      <trkpt lat="43.65148" lon="1.38668">
        <ele>142</ele>
        <time>2025-05-15T16:18:34Z</time>
      </trkpt>
      <trkpt lat="43.65149" lon="1.38671">
        <ele>142</ele>
        <time>2025-05-15T16:18:35Z</time>
      </trkpt>
      <trkpt lat="43.6515" lon="1.38675">
        <ele>143</ele>
        <time>2025-05-15T16:18:36Z</time>
      </trkpt>
      <trkpt lat="43.65151" lon="1.38678">
        <ele>143</ele>
        <time>2025-05-15T16:18:37Z</time>
      </trkpt>
      <trkpt lat="43.65153" lon="1.38682">
        <ele>143</ele>
        <time>2025-05-15T16:18:38Z</time>
      </trkpt>
      <trkpt lat="43.65154" lon="1.38685">
        <ele>143</ele>
        <time>2025-05-15T16:18:39Z</time>
      </trkpt>
      <trkpt lat="43.65155" lon="1.38688">
        <ele>143</ele>
        <time>2025-05-15T16:18:40Z</time>
      </trkpt>
      <trkpt lat="43.65157" lon="1.38691">
        <ele>143</ele>
        <time>2025-05-15T16:18:41Z</time>
      </trkpt>
      <trkpt lat="43.65158" lon="1.38694">
        <ele>143</ele>
        <time>2025-05-15T16:18:42Z</time>
      </trkpt>
      <trkpt lat="43.65159" lon="1.38697">
        <ele>143</ele>
        <time>2025-05-15T16:18:43Z</time>
      </trkpt>
      <trkpt lat="43.65161" lon="1.387">
        <ele>143</ele>
        <time>2025-05-15T16:18:44Z</time>
      </trkpt>
      <trkpt lat="43.65162" lon="1.38703">
        <ele>143</ele>
        <time>2025-05-15T16:18:45Z</time>
      </trkpt>
      <trkpt lat="43.65164" lon="1.38707">
        <ele>143</ele>
        <time>2025-05-15T16:18:46Z</time>
      </trkpt>
      <trkpt lat="43.65165" lon="1.3871">
        <ele>143</ele>
        <time>2025-05-15T16:18:47Z</time>
      </trkpt>
      <trkpt lat="43.65166" lon="1.38714">
        <ele>143</ele>
        <time>2025-05-15T16:18:48Z</time>
      </trkpt>
      <trkpt lat="43.65167" lon="1.38717">
        <ele>143</ele>
        <time>2025-05-15T16:18:49Z</time>
      </trkpt>
      <trkpt lat="43.65168" lon="1.38721">
        <ele>143</ele>
        <time>2025-05-15T16:18:50Z</time>
      </trkpt>
      <trkpt lat="43.6517" lon="1.38724">
        <ele>143</ele>
        <time>2025-05-15T16:18:51Z</time>
      </trkpt>
      <trkpt lat="43.65171" lon="1.38728">
        <ele>143</ele>
        <time>2025-05-15T16:18:52Z</time>
      </trkpt>
      <trkpt lat="43.65172" lon="1.38731">
        <ele>143</ele>
        <time>2025-05-15T16:18:53Z</time>
      </trkpt>
      <trkpt lat="43.65173" lon="1.38734">
        <ele>143</ele>
        <time>2025-05-15T16:18:54Z</time>
      </trkpt>
      <trkpt lat="43.65174" lon="1.38738">
        <ele>142</ele>
        <time>2025-05-15T16:18:55Z</time>
      </trkpt>
      <trkpt lat="43.65176" lon="1.38741">
        <ele>142</ele>
        <time>2025-05-15T16:18:56Z</time>
      </trkpt>
      <trkpt lat="43.65177" lon="1.38744">
        <ele>142</ele>
        <time>2025-05-15T16:18:57Z</time>
      </trkpt>
      <trkpt lat="43.65178" lon="1.38747">
        <ele>142</ele>
        <time>2025-05-15T16:18:58Z</time>
      </trkpt>
      <trkpt lat="43.65179" lon="1.3875">
        <ele>142</ele>
        <time>2025-05-15T16:18:59Z</time>
      </trkpt>
      <trkpt lat="43.6518" lon="1.38754">
        <ele>142</ele>
        <time>2025-05-15T16:19:00Z</time>
      </trkpt>
      <trkpt lat="43.65182" lon="1.38758">
        <ele>142</ele>
        <time>2025-05-15T16:19:01Z</time>
      </trkpt>
      <trkpt lat="43.65183" lon="1.38762">
        <ele>142</ele>
        <time>2025-05-15T16:19:02Z</time>
      </trkpt>
      <trkpt lat="43.65184" lon="1.38765">
        <ele>142</ele>
        <time>2025-05-15T16:19:03Z</time>
      </trkpt>
      <trkpt lat="43.65185" lon="1.38769">
        <ele>142</ele>
        <time>2025-05-15T16:19:04Z</time>
      </trkpt>
      <trkpt lat="43.65187" lon="1.38772">
        <ele>142</ele>
        <time>2025-05-15T16:19:05Z</time>
      </trkpt>
      <trkpt lat="43.65189" lon="1.38774">
        <ele>142</ele>
        <time>2025-05-15T16:19:06Z</time>
      </trkpt>
      <trkpt lat="43.65191" lon="1.38775">
        <ele>142</ele>
        <time>2025-05-15T16:19:07Z</time>
      </trkpt>
      <trkpt lat="43.65193" lon="1.38778">
        <ele>142</ele>
        <time>2025-05-15T16:19:08Z</time>
      </trkpt>
      <trkpt lat="43.65195" lon="1.3878">
        <ele>142</ele>
        <time>2025-05-15T16:19:09Z</time>
      </trkpt>
      <trkpt lat="43.65196" lon="1.38783">
        <ele>142</ele>
        <time>2025-05-15T16:19:10Z</time>
      </trkpt>
      <trkpt lat="43.65198" lon="1.38786">
        <ele>143</ele>
        <time>2025-05-15T16:19:11Z</time>
      </trkpt>
      <trkpt lat="43.652" lon="1.38788">
        <ele>143</ele>
        <time>2025-05-15T16:19:12Z</time>
      </trkpt>
      <trkpt lat="43.65202" lon="1.38791">
        <ele>143</ele>
        <time>2025-05-15T16:19:13Z</time>
      </trkpt>
      <trkpt lat="43.65204" lon="1.38794">
        <ele>143</ele>
        <time>2025-05-15T16:19:14Z</time>
      </trkpt>
      <trkpt lat="43.65206" lon="1.38796">
        <ele>143</ele>
        <time>2025-05-15T16:19:15Z</time>
      </trkpt>
      <trkpt lat="43.65208" lon="1.38799">
        <ele>143</ele>
        <time>2025-05-15T16:19:16Z</time>
      </trkpt>
      <trkpt lat="43.6521" lon="1.38802">
        <ele>143</ele>
        <time>2025-05-15T16:19:17Z</time>
      </trkpt>
      <trkpt lat="43.65212" lon="1.38805">
        <ele>143</ele>
        <time>2025-05-15T16:19:18Z</time>
      </trkpt>
      <trkpt lat="43.65214" lon="1.38808">
        <ele>143</ele>
        <time>2025-05-15T16:19:19Z</time>
      </trkpt>
      <trkpt lat="43.65216" lon="1.38811">
        <ele>143</ele>
        <time>2025-05-15T16:19:20Z</time>
      </trkpt>
      <trkpt lat="43.65217" lon="1.38814">
        <ele>143</ele>
        <time>2025-05-15T16:19:21Z</time>
      </trkpt>
      <trkpt lat="43.65219" lon="1.38816">
        <ele>143</ele>
        <time>2025-05-15T16:19:22Z</time>
      </trkpt>
      <trkpt lat="43.65221" lon="1.38819">
        <ele>143</ele>
        <time>2025-05-15T16:19:23Z</time>
      </trkpt>
      <trkpt lat="43.65223" lon="1.38822">
        <ele>142</ele>
        <time>2025-05-15T16:19:24Z</time>
      </trkpt>
      <trkpt lat="43.65225" lon="1.38824">
        <ele>142</ele>
        <time>2025-05-15T16:19:25Z</time>
      </trkpt>
      <trkpt lat="43.65227" lon="1.38827">
        <ele>142</ele>
        <time>2025-05-15T16:19:26Z</time>
      </trkpt>
      <trkpt lat="43.65229" lon="1.3883">
        <ele>142</ele>
        <time>2025-05-15T16:19:27Z</time>
      </trkpt>
      <trkpt lat="43.65231" lon="1.38833">
        <ele>141</ele>
        <time>2025-05-15T16:19:28Z</time>
      </trkpt>
      <trkpt lat="43.65233" lon="1.38835">
        <ele>141</ele>
        <time>2025-05-15T16:19:29Z</time>
      </trkpt>
      <trkpt lat="43.65235" lon="1.38838">
        <ele>141</ele>
        <time>2025-05-15T16:19:30Z</time>
      </trkpt>
      <trkpt lat="43.65237" lon="1.38841">
        <ele>141</ele>
        <time>2025-05-15T16:19:31Z</time>
      </trkpt>
      <trkpt lat="43.65239" lon="1.38843">
        <ele>141</ele>
        <time>2025-05-15T16:19:32Z</time>
      </trkpt>
      <trkpt lat="43.6524" lon="1.38845">
        <ele>141</ele>
        <time>2025-05-15T16:19:33Z</time>
      </trkpt>
      <trkpt lat="43.65242" lon="1.38848">
        <ele>141</ele>
        <time>2025-05-15T16:19:34Z</time>
      </trkpt>
      <trkpt lat="43.65244" lon="1.3885">
        <ele>141</ele>
        <time>2025-05-15T16:19:35Z</time>
      </trkpt>
      <trkpt lat="43.65245" lon="1.38853">
        <ele>140</ele>
        <time>2025-05-15T16:19:36Z</time>
      </trkpt>
      <trkpt lat="43.65246" lon="1.38856">
        <ele>140</ele>
        <time>2025-05-15T16:19:37Z</time>
      </trkpt>
      <trkpt lat="43.65248" lon="1.38859">
        <ele>140</ele>
        <time>2025-05-15T16:19:38Z</time>
      </trkpt>
      <trkpt lat="43.65249" lon="1.38862">
        <ele>140</ele>
        <time>2025-05-15T16:19:39Z</time>
      </trkpt>
      <trkpt lat="43.65251" lon="1.38864">
        <ele>140</ele>
        <time>2025-05-15T16:19:40Z</time>
      </trkpt>
      <trkpt lat="43.65253" lon="1.38867">
        <ele>139</ele>
        <time>2025-05-15T16:19:41Z</time>
      </trkpt>
      <trkpt lat="43.65255" lon="1.38869">
        <ele>139</ele>
        <time>2025-05-15T16:19:42Z</time>
      </trkpt>
      <trkpt lat="43.65257" lon="1.38872">
        <ele>139</ele>
        <time>2025-05-15T16:19:43Z</time>
      </trkpt>
      <trkpt lat="43.65259" lon="1.38874">
        <ele>139</ele>
        <time>2025-05-15T16:19:44Z</time>
      </trkpt>
      <trkpt lat="43.65261" lon="1.38877">
        <ele>138</ele>
        <time>2025-05-15T16:19:45Z</time>
      </trkpt>
      <trkpt lat="43.65263" lon="1.3888">
        <ele>138</ele>
        <time>2025-05-15T16:19:46Z</time>
      </trkpt>
      <trkpt lat="43.65265" lon="1.38883">
        <ele>138</ele>
        <time>2025-05-15T16:19:47Z</time>
      </trkpt>
      <trkpt lat="43.65267" lon="1.38885">
        <ele>138</ele>
        <time>2025-05-15T16:19:48Z</time>
      </trkpt>
      <trkpt lat="43.65269" lon="1.38888">
        <ele>138</ele>
        <time>2025-05-15T16:19:49Z</time>
      </trkpt>
      <trkpt lat="43.65271" lon="1.38891">
        <ele>138</ele>
        <time>2025-05-15T16:19:50Z</time>
      </trkpt>
      <trkpt lat="43.65273" lon="1.38894">
        <ele>138</ele>
        <time>2025-05-15T16:19:51Z</time>
      </trkpt>
      <trkpt lat="43.65276" lon="1.38897">
        <ele>137</ele>
        <time>2025-05-15T16:19:52Z</time>
      </trkpt>
      <trkpt lat="43.65278" lon="1.389">
        <ele>137</ele>
        <time>2025-05-15T16:19:53Z</time>
      </trkpt>
      <trkpt lat="43.6528" lon="1.38903">
        <ele>137</ele>
        <time>2025-05-15T16:19:54Z</time>
      </trkpt>
      <trkpt lat="43.65282" lon="1.38906">
        <ele>137</ele>
        <time>2025-05-15T16:19:55Z</time>
      </trkpt>
      <trkpt lat="43.65284" lon="1.38909">
        <ele>137</ele>
        <time>2025-05-15T16:19:56Z</time>
      </trkpt>
      <trkpt lat="43.65286" lon="1.38911">
        <ele>136</ele>
        <time>2025-05-15T16:19:57Z</time>
      </trkpt>
      <trkpt lat="43.65288" lon="1.38913">
        <ele>136</ele>
        <time>2025-05-15T16:19:58Z</time>
      </trkpt>
      <trkpt lat="43.6529" lon="1.38914">
        <ele>136</ele>
        <time>2025-05-15T16:19:59Z</time>
      </trkpt>
      <trkpt lat="43.65292" lon="1.38916">
        <ele>136</ele>
        <time>2025-05-15T16:20:00Z</time>
      </trkpt>
      <trkpt lat="43.65294" lon="1.38917">
        <ele>136</ele>
        <time>2025-05-15T16:20:01Z</time>
      </trkpt>
      <trkpt lat="43.65297" lon="1.38918">
        <ele>136</ele>
        <time>2025-05-15T16:20:02Z</time>
      </trkpt>
      <trkpt lat="43.65299" lon="1.3892">
        <ele>136</ele>
        <time>2025-05-15T16:20:03Z</time>
      </trkpt>
      <trkpt lat="43.65302" lon="1.38922">
        <ele>136</ele>
        <time>2025-05-15T16:20:04Z</time>
      </trkpt>
      <trkpt lat="43.65305" lon="1.38924">
        <ele>136</ele>
        <time>2025-05-15T16:20:05Z</time>
      </trkpt>
      <trkpt lat="43.65307" lon="1.38926">
        <ele>135</ele>
        <time>2025-05-15T16:20:06Z</time>
      </trkpt>
      <trkpt lat="43.65309" lon="1.3893">
        <ele>134</ele>
        <time>2025-05-15T16:20:07Z</time>
      </trkpt>
      <trkpt lat="43.65311" lon="1.38934">
        <ele>134</ele>
        <time>2025-05-15T16:20:08Z</time>
      </trkpt>
      <trkpt lat="43.65312" lon="1.38938">
        <ele>134</ele>
        <time>2025-05-15T16:20:09Z</time>
      </trkpt>
      <trkpt lat="43.65313" lon="1.38943">
        <ele>133</ele>
        <time>2025-05-15T16:20:10Z</time>
      </trkpt>
      <trkpt lat="43.65315" lon="1.38947">
        <ele>132</ele>
        <time>2025-05-15T16:20:11Z</time>
      </trkpt>
      <trkpt lat="43.65316" lon="1.38952">
        <ele>132</ele>
        <time>2025-05-15T16:20:12Z</time>
      </trkpt>
      <trkpt lat="43.65318" lon="1.38956">
        <ele>131</ele>
        <time>2025-05-15T16:20:13Z</time>
      </trkpt>
      <trkpt lat="43.65319" lon="1.38961">
        <ele>131</ele>
        <time>2025-05-15T16:20:14Z</time>
      </trkpt>
      <trkpt lat="43.6532" lon="1.38965">
        <ele>131</ele>
        <time>2025-05-15T16:20:15Z</time>
      </trkpt>
      <trkpt lat="43.65321" lon="1.38969">
        <ele>130</ele>
        <time>2025-05-15T16:20:16Z</time>
      </trkpt>
      <trkpt lat="43.65322" lon="1.38973">
        <ele>130</ele>
        <time>2025-05-15T16:20:17Z</time>
      </trkpt>
      <trkpt lat="43.65324" lon="1.38977">
        <ele>129</ele>
        <time>2025-05-15T16:20:18Z</time>
      </trkpt>
      <trkpt lat="43.65325" lon="1.38981">
        <ele>129</ele>
        <time>2025-05-15T16:20:19Z</time>
      </trkpt>
      <trkpt lat="43.65327" lon="1.38985">
        <ele>128</ele>
        <time>2025-05-15T16:20:20Z</time>
      </trkpt>
      <trkpt lat="43.65328" lon="1.38989">
        <ele>128</ele>
        <time>2025-05-15T16:20:21Z</time>
      </trkpt>
      <trkpt lat="43.6533" lon="1.38993">
        <ele>128</ele>
        <time>2025-05-15T16:20:22Z</time>
      </trkpt>
      <trkpt lat="43.6533" lon="1.38996">
        <ele>128</ele>
        <time>2025-05-15T16:20:23Z</time>
      </trkpt>
      <trkpt lat="43.6533" lon="1.39">
        <ele>127</ele>
        <time>2025-05-15T16:20:24Z</time>
      </trkpt>
      <trkpt lat="43.65328" lon="1.39004">
        <ele>127</ele>
        <time>2025-05-15T16:20:25Z</time>
      </trkpt>
      <trkpt lat="43.65326" lon="1.39008">
        <ele>127</ele>
        <time>2025-05-15T16:20:26Z</time>
      </trkpt>
      <trkpt lat="43.65324" lon="1.39012">
        <ele>126</ele>
        <time>2025-05-15T16:20:27Z</time>
      </trkpt>
      <trkpt lat="43.65322" lon="1.39016">
        <ele>126</ele>
        <time>2025-05-15T16:20:28Z</time>
      </trkpt>
      <trkpt lat="43.65321" lon="1.39019">
        <ele>126</ele>
        <time>2025-05-15T16:20:29Z</time>
      </trkpt>
      <trkpt lat="43.65319" lon="1.39023">
        <ele>126</ele>
        <time>2025-05-15T16:20:30Z</time>
      </trkpt>
      <trkpt lat="43.65318" lon="1.39026">
        <ele>126</ele>
        <time>2025-05-15T16:20:31Z</time>
      </trkpt>
      <trkpt lat="43.65316" lon="1.3903">
        <ele>126</ele>
        <time>2025-05-15T16:20:32Z</time>
      </trkpt>
      <trkpt lat="43.65315" lon="1.39033">
        <ele>126</ele>
        <time>2025-05-15T16:20:33Z</time>
      </trkpt>
      <trkpt lat="43.65313" lon="1.39036">
        <ele>126</ele>
        <time>2025-05-15T16:20:34Z</time>
      </trkpt>
      <trkpt lat="43.65311" lon="1.39039">
        <ele>126</ele>
        <time>2025-05-15T16:20:35Z</time>
      </trkpt>
      <trkpt lat="43.65308" lon="1.39041">
        <ele>126</ele>
        <time>2025-05-15T16:20:36Z</time>
      </trkpt>
      <trkpt lat="43.65305" lon="1.39043">
        <ele>126</ele>
        <time>2025-05-15T16:20:37Z</time>
      </trkpt>
      <trkpt lat="43.65302" lon="1.39044">
        <ele>126</ele>
        <time>2025-05-15T16:20:38Z</time>
      </trkpt>
      <trkpt lat="43.65299" lon="1.39044">
        <ele>126</ele>
        <time>2025-05-15T16:20:39Z</time>
      </trkpt>
      <trkpt lat="43.65297" lon="1.39043">
        <ele>126</ele>
        <time>2025-05-15T16:20:40Z</time>
      </trkpt>
      <trkpt lat="43.65294" lon="1.39043">
        <ele>126</ele>
        <time>2025-05-15T16:20:41Z</time>
      </trkpt>
      <trkpt lat="43.65291" lon="1.39042">
        <ele>126</ele>
        <time>2025-05-15T16:20:42Z</time>
      </trkpt>
      <trkpt lat="43.65288" lon="1.39042">
        <ele>126</ele>
        <time>2025-05-15T16:20:43Z</time>
      </trkpt>
      <trkpt lat="43.65286" lon="1.39041">
        <ele>126</ele>
        <time>2025-05-15T16:20:44Z</time>
      </trkpt>
      <trkpt lat="43.65283" lon="1.39041">
        <ele>126</ele>
        <time>2025-05-15T16:20:45Z</time>
      </trkpt>
      <trkpt lat="43.6528" lon="1.3904">
        <ele>126</ele>
        <time>2025-05-15T16:20:46Z</time>
      </trkpt>
      <trkpt lat="43.65277" lon="1.39039">
        <ele>126</ele>
        <time>2025-05-15T16:20:47Z</time>
      </trkpt>
      <trkpt lat="43.65274" lon="1.39039">
        <ele>126</ele>
        <time>2025-05-15T16:20:48Z</time>
      </trkpt>
      <trkpt lat="43.65272" lon="1.39039">
        <ele>126</ele>
        <time>2025-05-15T16:20:49Z</time>
      </trkpt>
      <trkpt lat="43.65269" lon="1.39038">
        <ele>126</ele>
        <time>2025-05-15T16:20:50Z</time>
      </trkpt>
      <trkpt lat="43.65266" lon="1.39038">
        <ele>126</ele>
        <time>2025-05-15T16:20:51Z</time>
      </trkpt>
      <trkpt lat="43.65263" lon="1.39038">
        <ele>126</ele>
        <time>2025-05-15T16:20:52Z</time>
      </trkpt>
      <trkpt lat="43.6526" lon="1.39038">
        <ele>126</ele>
        <time>2025-05-15T16:20:53Z</time>
      </trkpt>
      <trkpt lat="43.65257" lon="1.39037">
        <ele>126</ele>
        <time>2025-05-15T16:20:54Z</time>
      </trkpt>
      <trkpt lat="43.65255" lon="1.39037">
        <ele>126</ele>
        <time>2025-05-15T16:20:55Z</time>
      </trkpt>
      <trkpt lat="43.65252" lon="1.39037">
        <ele>126</ele>
        <time>2025-05-15T16:20:56Z</time>
      </trkpt>
      <trkpt lat="43.65249" lon="1.39036">
        <ele>126</ele>
        <time>2025-05-15T16:20:57Z</time>
      </trkpt>
      <trkpt lat="43.65247" lon="1.39035">
        <ele>126</ele>
        <time>2025-05-15T16:20:58Z</time>
      </trkpt>
      <trkpt lat="43.65244" lon="1.39034">
        <ele>126</ele>
        <time>2025-05-15T16:20:59Z</time>
      </trkpt>
      <trkpt lat="43.65242" lon="1.39033">
        <ele>126</ele>
        <time>2025-05-15T16:21:00Z</time>
      </trkpt>
      <trkpt lat="43.65239" lon="1.39031">
        <ele>126</ele>
        <time>2025-05-15T16:21:01Z</time>
      </trkpt>
      <trkpt lat="43.65237" lon="1.39029">
        <ele>126</ele>
        <time>2025-05-15T16:21:02Z</time>
      </trkpt>
      <trkpt lat="43.65234" lon="1.39028">
        <ele>126</ele>
        <time>2025-05-15T16:21:03Z</time>
      </trkpt>
      <trkpt lat="43.65232" lon="1.39026">
        <ele>126</ele>
        <time>2025-05-15T16:21:04Z</time>
      </trkpt>
      <trkpt lat="43.6523" lon="1.39024">
        <ele>126</ele>
        <time>2025-05-15T16:21:05Z</time>
      </trkpt>
      <trkpt lat="43.65227" lon="1.39022">
        <ele>126</ele>
        <time>2025-05-15T16:21:06Z</time>
      </trkpt>
      <trkpt lat="43.65225" lon="1.39021">
        <ele>126</ele>
        <time>2025-05-15T16:21:07Z</time>
      </trkpt>
      <trkpt lat="43.65222" lon="1.3902">
        <ele>126</ele>
        <time>2025-05-15T16:21:08Z</time>
      </trkpt>
      <trkpt lat="43.6522" lon="1.39019">
        <ele>126</ele>
        <time>2025-05-15T16:21:09Z</time>
      </trkpt>
      <trkpt lat="43.65217" lon="1.39018">
        <ele>126</ele>
        <time>2025-05-15T16:21:10Z</time>
      </trkpt>
      <trkpt lat="43.65215" lon="1.39017">
        <ele>126</ele>
        <time>2025-05-15T16:21:11Z</time>
      </trkpt>
      <trkpt lat="43.65213" lon="1.39017">
        <ele>126</ele>
        <time>2025-05-15T16:21:12Z</time>
      </trkpt>
      <trkpt lat="43.6521" lon="1.39017">
        <ele>126</ele>
        <time>2025-05-15T16:21:13Z</time>
      </trkpt>
      <trkpt lat="43.65207" lon="1.39018">
        <ele>126</ele>
        <time>2025-05-15T16:21:14Z</time>
      </trkpt>
      <trkpt lat="43.65204" lon="1.39017">
        <ele>126</ele>
        <time>2025-05-15T16:21:15Z</time>
      </trkpt>
      <trkpt lat="43.65202" lon="1.39018">
        <ele>126</ele>
        <time>2025-05-15T16:21:16Z</time>
      </trkpt>
      <trkpt lat="43.65199" lon="1.39018">
        <ele>126</ele>
        <time>2025-05-15T16:21:17Z</time>
      </trkpt>
      <trkpt lat="43.65196" lon="1.39018">
        <ele>126</ele>
        <time>2025-05-15T16:21:18Z</time>
      </trkpt>
      <trkpt lat="43.65193" lon="1.39018">
        <ele>126</ele>
        <time>2025-05-15T16:21:19Z</time>
      </trkpt>
      <trkpt lat="43.65191" lon="1.39018">
        <ele>126</ele>
        <time>2025-05-15T16:21:20Z</time>
      </trkpt>
      <trkpt lat="43.65188" lon="1.39018">
        <ele>126</ele>
        <time>2025-05-15T16:21:21Z</time>
      </trkpt>
      <trkpt lat="43.65185" lon="1.39018">
        <ele>126</ele>
        <time>2025-05-15T16:21:22Z</time>
      </trkpt>
      <trkpt lat="43.65182" lon="1.39018">
        <ele>126</ele>
        <time>2025-05-15T16:21:23Z</time>
      </trkpt>
      <trkpt lat="43.65179" lon="1.39017">
        <ele>126</ele>
        <time>2025-05-15T16:21:24Z</time>
      </trkpt>
      <trkpt lat="43.65177" lon="1.39017">
        <ele>126</ele>
        <time>2025-05-15T16:21:25Z</time>
      </trkpt>
      <trkpt lat="43.65174" lon="1.39018">
        <ele>126</ele>
        <time>2025-05-15T16:21:26Z</time>
      </trkpt>
      <trkpt lat="43.65171" lon="1.39018">
        <ele>126</ele>
        <time>2025-05-15T16:21:27Z</time>
      </trkpt>
      <trkpt lat="43.65169" lon="1.39018">
        <ele>126</ele>
        <time>2025-05-15T16:21:28Z</time>
      </trkpt>
      <trkpt lat="43.65166" lon="1.39018">
        <ele>126</ele>
        <time>2025-05-15T16:21:29Z</time>
      </trkpt>
      <trkpt lat="43.65163" lon="1.39018">
        <ele>126</ele>
        <time>2025-05-15T16:21:30Z</time>
      </trkpt>
      <trkpt lat="43.6516" lon="1.39018">
        <ele>126</ele>
        <time>2025-05-15T16:21:31Z</time>
      </trkpt>
      <trkpt lat="43.65158" lon="1.39018">
        <ele>126</ele>
        <time>2025-05-15T16:21:32Z</time>
      </trkpt>
      <trkpt lat="43.65155" lon="1.39019">
        <ele>126</ele>
        <time>2025-05-15T16:21:33Z</time>
      </trkpt>
      <trkpt lat="43.65152" lon="1.39019">
        <ele>126</ele>
        <time>2025-05-15T16:21:34Z</time>
      </trkpt>
      <trkpt lat="43.6515" lon="1.39019">
        <ele>126</ele>
        <time>2025-05-15T16:21:35Z</time>
      </trkpt>
      <trkpt lat="43.65147" lon="1.39019">
        <ele>126</ele>
        <time>2025-05-15T16:21:36Z</time>
      </trkpt>
      <trkpt lat="43.65144" lon="1.39019">
        <ele>126</ele>
        <time>2025-05-15T16:21:37Z</time>
      </trkpt>
      <trkpt lat="43.65141" lon="1.39019">
        <ele>126</ele>
        <time>2025-05-15T16:21:38Z</time>
      </trkpt>
      <trkpt lat="43.65139" lon="1.3902">
        <ele>126</ele>
        <time>2025-05-15T16:21:39Z</time>
      </trkpt>
      <trkpt lat="43.65136" lon="1.3902">
        <ele>126</ele>
        <time>2025-05-15T16:21:40Z</time>
      </trkpt>
      <trkpt lat="43.65133" lon="1.3902">
        <ele>126</ele>
        <time>2025-05-15T16:21:41Z</time>
      </trkpt>
      <trkpt lat="43.65131" lon="1.39019">
        <ele>126</ele>
        <time>2025-05-15T16:21:42Z</time>
      </trkpt>
      <trkpt lat="43.65128" lon="1.39019">
        <ele>126</ele>
        <time>2025-05-15T16:21:43Z</time>
      </trkpt>
      <trkpt lat="43.65125" lon="1.39019">
        <ele>126</ele>
        <time>2025-05-15T16:21:44Z</time>
      </trkpt>
      <trkpt lat="43.65123" lon="1.39019">
        <ele>126</ele>
        <time>2025-05-15T16:21:45Z</time>
      </trkpt>
      <trkpt lat="43.6512" lon="1.39019">
        <ele>126</ele>
        <time>2025-05-15T16:21:46Z</time>
      </trkpt>
      <trkpt lat="43.65117" lon="1.39019">
        <ele>126</ele>
        <time>2025-05-15T16:21:47Z</time>
      </trkpt>
      <trkpt lat="43.65114" lon="1.39019">
        <ele>126</ele>
        <time>2025-05-15T16:21:48Z</time>
      </trkpt>
      <trkpt lat="43.65112" lon="1.39019">
        <ele>126</ele>
        <time>2025-05-15T16:21:49Z</time>
      </trkpt>
      <trkpt lat="43.65109" lon="1.39019">
        <ele>126</ele>
        <time>2025-05-15T16:21:50Z</time>
      </trkpt>
      <trkpt lat="43.65106" lon="1.39019">
        <ele>126</ele>
        <time>2025-05-15T16:21:51Z</time>
      </trkpt>
      <trkpt lat="43.65103" lon="1.39018">
        <ele>126</ele>
        <time>2025-05-15T16:21:52Z</time>
      </trkpt>
      <trkpt lat="43.65101" lon="1.39018">
        <ele>126</ele>
        <time>2025-05-15T16:21:53Z</time>
      </trkpt>
      <trkpt lat="43.65098" lon="1.39018">
        <ele>126</ele>
        <time>2025-05-15T16:21:54Z</time>
      </trkpt>
      <trkpt lat="43.65096" lon="1.39019">
        <ele>126</ele>
        <time>2025-05-15T16:21:55Z</time>
      </trkpt>
      <trkpt lat="43.65093" lon="1.39019">
        <ele>126</ele>
        <time>2025-05-15T16:21:56Z</time>
      </trkpt>
      <trkpt lat="43.65091" lon="1.3902">
        <ele>126</ele>
        <time>2025-05-15T16:21:57Z</time>
      </trkpt>
      <trkpt lat="43.65088" lon="1.39022">
        <ele>126</ele>
        <time>2025-05-15T16:21:58Z</time>
      </trkpt>
      <trkpt lat="43.65085" lon="1.39023">
        <ele>126</ele>
        <time>2025-05-15T16:21:59Z</time>
      </trkpt>
      <trkpt lat="43.65083" lon="1.39025">
        <ele>126</ele>
        <time>2025-05-15T16:22:00Z</time>
      </trkpt>
      <trkpt lat="43.6508" lon="1.39027">
        <ele>126</ele>
        <time>2025-05-15T16:22:01Z</time>
      </trkpt>
      <trkpt lat="43.65078" lon="1.39028">
        <ele>126</ele>
        <time>2025-05-15T16:22:02Z</time>
      </trkpt>
      <trkpt lat="43.65076" lon="1.3903">
        <ele>126</ele>
        <time>2025-05-15T16:22:03Z</time>
      </trkpt>
      <trkpt lat="43.65074" lon="1.39033">
        <ele>126</ele>
        <time>2025-05-15T16:22:04Z</time>
      </trkpt>
      <trkpt lat="43.65072" lon="1.39035">
        <ele>126</ele>
        <time>2025-05-15T16:22:05Z</time>
      </trkpt>
      <trkpt lat="43.6507" lon="1.39038">
        <ele>126</ele>
        <time>2025-05-15T16:22:06Z</time>
      </trkpt>
      <trkpt lat="43.65069" lon="1.39041">
        <ele>126</ele>
        <time>2025-05-15T16:22:07Z</time>
      </trkpt>
      <trkpt lat="43.65068" lon="1.39045">
        <ele>126</ele>
        <time>2025-05-15T16:22:08Z</time>
      </trkpt>
      <trkpt lat="43.65068" lon="1.39048">
        <ele>126</ele>
        <time>2025-05-15T16:22:09Z</time>
      </trkpt>
      <trkpt lat="43.65067" lon="1.39052">
        <ele>126</ele>
        <time>2025-05-15T16:22:10Z</time>
      </trkpt>
      <trkpt lat="43.65068" lon="1.39055">
        <ele>126</ele>
        <time>2025-05-15T16:22:11Z</time>
      </trkpt>
      <trkpt lat="43.65068" lon="1.39058">
        <ele>126</ele>
        <time>2025-05-15T16:22:12Z</time>
      </trkpt>
      <trkpt lat="43.65068" lon="1.39062">
        <ele>126</ele>
        <time>2025-05-15T16:22:13Z</time>
      </trkpt>
      <trkpt lat="43.65069" lon="1.39066">
        <ele>126</ele>
        <time>2025-05-15T16:22:14Z</time>
      </trkpt>
      <trkpt lat="43.65069" lon="1.39069">
        <ele>126</ele>
        <time>2025-05-15T16:22:15Z</time>
      </trkpt>
      <trkpt lat="43.6507" lon="1.39072">
        <ele>126</ele>
        <time>2025-05-15T16:22:16Z</time>
      </trkpt>
      <trkpt lat="43.6507" lon="1.39076">
        <ele>126</ele>
        <time>2025-05-15T16:22:17Z</time>
      </trkpt>
      <trkpt lat="43.65071" lon="1.3908">
        <ele>126</ele>
        <time>2025-05-15T16:22:18Z</time>
      </trkpt>
      <trkpt lat="43.65071" lon="1.39084">
        <ele>126</ele>
        <time>2025-05-15T16:22:19Z</time>
      </trkpt>
      <trkpt lat="43.65071" lon="1.39087">
        <ele>126</ele>
        <time>2025-05-15T16:22:20Z</time>
      </trkpt>
      <trkpt lat="43.65071" lon="1.39091">
        <ele>126</ele>
        <time>2025-05-15T16:22:21Z</time>
      </trkpt>
      <trkpt lat="43.65072" lon="1.39095">
        <ele>126</ele>
        <time>2025-05-15T16:22:22Z</time>
      </trkpt>
      <trkpt lat="43.65072" lon="1.39099">
        <ele>126</ele>
        <time>2025-05-15T16:22:23Z</time>
      </trkpt>
      <trkpt lat="43.65072" lon="1.39102">
        <ele>126</ele>
        <time>2025-05-15T16:22:24Z</time>
      </trkpt>
      <trkpt lat="43.65073" lon="1.39106">
        <ele>126</ele>
        <time>2025-05-15T16:22:25Z</time>
      </trkpt>
      <trkpt lat="43.65073" lon="1.39109">
        <ele>126</ele>
        <time>2025-05-15T16:22:26Z</time>
      </trkpt>
      <trkpt lat="43.65073" lon="1.39113">
        <ele>126</ele>
        <time>2025-05-15T16:22:27Z</time>
      </trkpt>
      <trkpt lat="43.65073" lon="1.39117">
        <ele>126</ele>
        <time>2025-05-15T16:22:28Z</time>
      </trkpt>
      <trkpt lat="43.65073" lon="1.39121">
        <ele>126</ele>
        <time>2025-05-15T16:22:29Z</time>
      </trkpt>
      <trkpt lat="43.65072" lon="1.39124">
        <ele>126</ele>
        <time>2025-05-15T16:22:30Z</time>
      </trkpt>
      <trkpt lat="43.65071" lon="1.39128">
        <ele>126</ele>
        <time>2025-05-15T16:22:31Z</time>
      </trkpt>
      <trkpt lat="43.6507" lon="1.39131">
        <ele>126</ele>
        <time>2025-05-15T16:22:32Z</time>
      </trkpt>
      <trkpt lat="43.65068" lon="1.39135">
        <ele>126</ele>
        <time>2025-05-15T16:22:33Z</time>
      </trkpt>
      <trkpt lat="43.65067" lon="1.39138">
        <ele>126</ele>
        <time>2025-05-15T16:22:34Z</time>
      </trkpt>
      <trkpt lat="43.65064" lon="1.39141">
        <ele>126</ele>
        <time>2025-05-15T16:22:35Z</time>
      </trkpt>
      <trkpt lat="43.65062" lon="1.39142">
        <ele>126</ele>
        <time>2025-05-15T16:22:36Z</time>
      </trkpt>
      <trkpt lat="43.65059" lon="1.39144">
        <ele>126</ele>
        <time>2025-05-15T16:22:37Z</time>
      </trkpt>
      <trkpt lat="43.65057" lon="1.39145">
        <ele>126</ele>
        <time>2025-05-15T16:22:38Z</time>
      </trkpt>
      <trkpt lat="43.65054" lon="1.39146">
        <ele>126</ele>
        <time>2025-05-15T16:22:39Z</time>
      </trkpt>
      <trkpt lat="43.65051" lon="1.39147">
        <ele>126</ele>
        <time>2025-05-15T16:22:40Z</time>
      </trkpt>
      <trkpt lat="43.65049" lon="1.39147">
        <ele>126</ele>
        <time>2025-05-15T16:22:41Z</time>
      </trkpt>
      <trkpt lat="43.65046" lon="1.39148">
        <ele>126</ele>
        <time>2025-05-15T16:22:42Z</time>
      </trkpt>
      <trkpt lat="43.65043" lon="1.39149">
        <ele>126</ele>
        <time>2025-05-15T16:22:43Z</time>
      </trkpt>
      <trkpt lat="43.6504" lon="1.39149">
        <ele>126</ele>
        <time>2025-05-15T16:22:44Z</time>
      </trkpt>
      <trkpt lat="43.65037" lon="1.3915">
        <ele>126</ele>
        <time>2025-05-15T16:22:45Z</time>
      </trkpt>
      <trkpt lat="43.65035" lon="1.3915">
        <ele>126</ele>
        <time>2025-05-15T16:22:46Z</time>
      </trkpt>
      <trkpt lat="43.65032" lon="1.3915">
        <ele>126</ele>
        <time>2025-05-15T16:22:47Z</time>
      </trkpt>
      <trkpt lat="43.6503" lon="1.3915">
        <ele>127</ele>
        <time>2025-05-15T16:22:48Z</time>
      </trkpt>
      <trkpt lat="43.65028" lon="1.39151">
        <ele>127</ele>
        <time>2025-05-15T16:22:49Z</time>
      </trkpt>
      <trkpt lat="43.65025" lon="1.39151">
        <ele>127</ele>
        <time>2025-05-15T16:22:50Z</time>
      </trkpt>
      <trkpt lat="43.65022" lon="1.39151">
        <ele>127</ele>
        <time>2025-05-15T16:22:51Z</time>
      </trkpt>
      <trkpt lat="43.6502" lon="1.39151">
        <ele>127</ele>
        <time>2025-05-15T16:22:52Z</time>
      </trkpt>
      <trkpt lat="43.65017" lon="1.39152">
        <ele>127</ele>
        <time>2025-05-15T16:22:53Z</time>
      </trkpt>
      <trkpt lat="43.65014" lon="1.39152">
        <ele>127</ele>
        <time>2025-05-15T16:22:54Z</time>
      </trkpt>
      <trkpt lat="43.65012" lon="1.39153">
        <ele>127</ele>
        <time>2025-05-15T16:22:55Z</time>
      </trkpt>
      <trkpt lat="43.65009" lon="1.39153">
        <ele>127</ele>
        <time>2025-05-15T16:22:56Z</time>
      </trkpt>
      <trkpt lat="43.65006" lon="1.39154">
        <ele>127</ele>
        <time>2025-05-15T16:22:57Z</time>
      </trkpt>
      <trkpt lat="43.65004" lon="1.39154">
        <ele>128</ele>
        <time>2025-05-15T16:22:58Z</time>
      </trkpt>
      <trkpt lat="43.65001" lon="1.39155">
        <ele>128</ele>
        <time>2025-05-15T16:22:59Z</time>
      </trkpt>
      <trkpt lat="43.64998" lon="1.39155">
        <ele>128</ele>
        <time>2025-05-15T16:23:00Z</time>
      </trkpt>
      <trkpt lat="43.64996" lon="1.39156">
        <ele>128</ele>
        <time>2025-05-15T16:23:01Z</time>
      </trkpt>
      <trkpt lat="43.64993" lon="1.39157">
        <ele>128</ele>
        <time>2025-05-15T16:23:02Z</time>
      </trkpt>
      <trkpt lat="43.64991" lon="1.39157">
        <ele>127</ele>
        <time>2025-05-15T16:23:03Z</time>
      </trkpt>
      <trkpt lat="43.64988" lon="1.39158">
        <ele>127</ele>
        <time>2025-05-15T16:23:04Z</time>
      </trkpt>
      <trkpt lat="43.64985" lon="1.39158">
        <ele>127</ele>
        <time>2025-05-15T16:23:05Z</time>
      </trkpt>
      <trkpt lat="43.64982" lon="1.39159">
        <ele>127</ele>
        <time>2025-05-15T16:23:06Z</time>
      </trkpt>
      <trkpt lat="43.6498" lon="1.3916">
        <ele>127</ele>
        <time>2025-05-15T16:23:07Z</time>
      </trkpt>
      <trkpt lat="43.64977" lon="1.3916">
        <ele>127</ele>
        <time>2025-05-15T16:23:08Z</time>
      </trkpt>
      <trkpt lat="43.64974" lon="1.39161">
        <ele>127</ele>
        <time>2025-05-15T16:23:09Z</time>
      </trkpt>
      <trkpt lat="43.64971" lon="1.39161">
        <ele>127</ele>
        <time>2025-05-15T16:23:10Z</time>
      </trkpt>
      <trkpt lat="43.64969" lon="1.39162">
        <ele>127</ele>
        <time>2025-05-15T16:23:11Z</time>
      </trkpt>
      <trkpt lat="43.64966" lon="1.39162">
        <ele>127</ele>
        <time>2025-05-15T16:23:12Z</time>
      </trkpt>
      <trkpt lat="43.64963" lon="1.39162">
        <ele>127</ele>
        <time>2025-05-15T16:23:13Z</time>
      </trkpt>
      <trkpt lat="43.6496" lon="1.3916">
        <ele>127</ele>
        <time>2025-05-15T16:23:14Z</time>
      </trkpt>
      <trkpt lat="43.64958" lon="1.39158">
        <ele>127</ele>
        <time>2025-05-15T16:23:15Z</time>
      </trkpt>
      <trkpt lat="43.64956" lon="1.39154">
        <ele>127</ele>
        <time>2025-05-15T16:23:16Z</time>
      </trkpt>
      <trkpt lat="43.64954" lon="1.39151">
        <ele>127</ele>
        <time>2025-05-15T16:23:17Z</time>
      </trkpt>
      <trkpt lat="43.64953" lon="1.39148">
        <ele>127</ele>
        <time>2025-05-15T16:23:18Z</time>
      </trkpt>
      <trkpt lat="43.64952" lon="1.39145">
        <ele>127</ele>
        <time>2025-05-15T16:23:19Z</time>
      </trkpt>
      <trkpt lat="43.64951" lon="1.39141">
        <ele>127</ele>
        <time>2025-05-15T16:23:20Z</time>
      </trkpt>
      <trkpt lat="43.6495" lon="1.39138">
        <ele>127</ele>
        <time>2025-05-15T16:23:21Z</time>
      </trkpt>
      <trkpt lat="43.64949" lon="1.39134">
        <ele>127</ele>
        <time>2025-05-15T16:23:22Z</time>
      </trkpt>
      <trkpt lat="43.64948" lon="1.3913">
        <ele>127</ele>
        <time>2025-05-15T16:23:23Z</time>
      </trkpt>
      <trkpt lat="43.64947" lon="1.39127">
        <ele>127</ele>
        <time>2025-05-15T16:23:24Z</time>
      </trkpt>
      <trkpt lat="43.64945" lon="1.39124">
        <ele>127</ele>
        <time>2025-05-15T16:23:25Z</time>
      </trkpt>
      <trkpt lat="43.64943" lon="1.39121">
        <ele>127</ele>
        <time>2025-05-15T16:23:26Z</time>
      </trkpt>
      <trkpt lat="43.6494" lon="1.39119">
        <ele>127</ele>
        <time>2025-05-15T16:23:27Z</time>
      </trkpt>
      <trkpt lat="43.64938" lon="1.39118">
        <ele>127</ele>
        <time>2025-05-15T16:23:28Z</time>
      </trkpt>
      <trkpt lat="43.64935" lon="1.39117">
        <ele>127</ele>
        <time>2025-05-15T16:23:29Z</time>
      </trkpt>
      <trkpt lat="43.64932" lon="1.39117">
        <ele>127</ele>
        <time>2025-05-15T16:23:30Z</time>
      </trkpt>
      <trkpt lat="43.6493" lon="1.39117">
        <ele>127</ele>
        <time>2025-05-15T16:23:31Z</time>
      </trkpt>
      <trkpt lat="43.64927" lon="1.39117">
        <ele>127</ele>
        <time>2025-05-15T16:23:32Z</time>
      </trkpt>
      <trkpt lat="43.64924" lon="1.39117">
        <ele>127</ele>
        <time>2025-05-15T16:23:33Z</time>
      </trkpt>
      <trkpt lat="43.64922" lon="1.39117">
        <ele>127</ele>
        <time>2025-05-15T16:23:34Z</time>
      </trkpt>
      <trkpt lat="43.64919" lon="1.39117">
        <ele>127</ele>
        <time>2025-05-15T16:23:35Z</time>
      </trkpt>
      <trkpt lat="43.64917" lon="1.39116">
        <ele>127</ele>
        <time>2025-05-15T16:23:36Z</time>
      </trkpt>
      <trkpt lat="43.64914" lon="1.39116">
        <ele>127</ele>
        <time>2025-05-15T16:23:37Z</time>
      </trkpt>
      <trkpt lat="43.64911" lon="1.39117">
        <ele>127</ele>
        <time>2025-05-15T16:23:38Z</time>
      </trkpt>
      <trkpt lat="43.64909" lon="1.39117">
        <ele>127</ele>
        <time>2025-05-15T16:23:39Z</time>
      </trkpt>
      <trkpt lat="43.64906" lon="1.39117">
        <ele>127</ele>
        <time>2025-05-15T16:23:40Z</time>
      </trkpt>
      <trkpt lat="43.64903" lon="1.39117">
        <ele>127</ele>
        <time>2025-05-15T16:23:41Z</time>
      </trkpt>
      <trkpt lat="43.649" lon="1.39117">
        <ele>127</ele>
        <time>2025-05-15T16:23:42Z</time>
      </trkpt>
      <trkpt lat="43.64898" lon="1.39118">
        <ele>127</ele>
        <time>2025-05-15T16:23:43Z</time>
      </trkpt>
      <trkpt lat="43.64895" lon="1.39118">
        <ele>127</ele>
        <time>2025-05-15T16:23:44Z</time>
      </trkpt>
      <trkpt lat="43.64892" lon="1.39119">
        <ele>127</ele>
        <time>2025-05-15T16:23:45Z</time>
      </trkpt>
      <trkpt lat="43.6489" lon="1.3912">
        <ele>127</ele>
        <time>2025-05-15T16:23:46Z</time>
      </trkpt>
      <trkpt lat="43.64887" lon="1.3912">
        <ele>127</ele>
        <time>2025-05-15T16:23:47Z</time>
      </trkpt>
      <trkpt lat="43.64884" lon="1.39121">
        <ele>127</ele>
        <time>2025-05-15T16:23:48Z</time>
      </trkpt>
      <trkpt lat="43.64882" lon="1.39121">
        <ele>127</ele>
        <time>2025-05-15T16:23:49Z</time>
      </trkpt>
      <trkpt lat="43.64879" lon="1.39122">
        <ele>127</ele>
        <time>2025-05-15T16:23:50Z</time>
      </trkpt>
      <trkpt lat="43.64876" lon="1.39123">
        <ele>127</ele>
        <time>2025-05-15T16:23:51Z</time>
      </trkpt>
      <trkpt lat="43.64873" lon="1.39124">
        <ele>127</ele>
        <time>2025-05-15T16:23:52Z</time>
      </trkpt>
      <trkpt lat="43.6487" lon="1.39125">
        <ele>127</ele>
        <time>2025-05-15T16:23:53Z</time>
      </trkpt>
      <trkpt lat="43.64868" lon="1.39126">
        <ele>127</ele>
        <time>2025-05-15T16:23:54Z</time>
      </trkpt>
      <trkpt lat="43.64865" lon="1.39126">
        <ele>127</ele>
        <time>2025-05-15T16:23:55Z</time>
      </trkpt>
      <trkpt lat="43.64862" lon="1.39127">
        <ele>127</ele>
        <time>2025-05-15T16:23:56Z</time>
      </trkpt>
      <trkpt lat="43.6486" lon="1.39128">
        <ele>127</ele>
        <time>2025-05-15T16:23:57Z</time>
      </trkpt>
      <trkpt lat="43.64857" lon="1.39129">
        <ele>127</ele>
        <time>2025-05-15T16:23:58Z</time>
      </trkpt>
      <trkpt lat="43.64855" lon="1.3913">
        <ele>127</ele>
        <time>2025-05-15T16:23:59Z</time>
      </trkpt>
      <trkpt lat="43.64852" lon="1.3913">
        <ele>128</ele>
        <time>2025-05-15T16:24:00Z</time>
      </trkpt>
      <trkpt lat="43.64849" lon="1.39131">
        <ele>128</ele>
        <time>2025-05-15T16:24:01Z</time>
      </trkpt>
      <trkpt lat="43.64847" lon="1.39132">
        <ele>127</ele>
        <time>2025-05-15T16:24:02Z</time>
      </trkpt>
      <trkpt lat="43.64844" lon="1.39134">
        <ele>127</ele>
        <time>2025-05-15T16:24:03Z</time>
      </trkpt>
      <trkpt lat="43.64841" lon="1.39135">
        <ele>127</ele>
        <time>2025-05-15T16:24:04Z</time>
      </trkpt>
      <trkpt lat="43.64839" lon="1.39136">
        <ele>127</ele>
        <time>2025-05-15T16:24:05Z</time>
      </trkpt>
      <trkpt lat="43.64836" lon="1.39138">
        <ele>127</ele>
        <time>2025-05-15T16:24:06Z</time>
      </trkpt>
      <trkpt lat="43.64834" lon="1.3914">
        <ele>127</ele>
        <time>2025-05-15T16:24:07Z</time>
      </trkpt>
      <trkpt lat="43.64832" lon="1.39142">
        <ele>127</ele>
        <time>2025-05-15T16:24:08Z</time>
      </trkpt>
      <trkpt lat="43.64829" lon="1.39144">
        <ele>127</ele>
        <time>2025-05-15T16:24:09Z</time>
      </trkpt>
      <trkpt lat="43.64826" lon="1.39146">
        <ele>127</ele>
        <time>2025-05-15T16:24:10Z</time>
      </trkpt>
      <trkpt lat="43.64824" lon="1.39148">
        <ele>127</ele>
        <time>2025-05-15T16:24:11Z</time>
      </trkpt>
      <trkpt lat="43.64821" lon="1.39149">
        <ele>126</ele>
        <time>2025-05-15T16:24:12Z</time>
      </trkpt>
      <trkpt lat="43.64819" lon="1.39151">
        <ele>126</ele>
        <time>2025-05-15T16:24:13Z</time>
      </trkpt>
      <trkpt lat="43.64816" lon="1.39152">
        <ele>126</ele>
        <time>2025-05-15T16:24:14Z</time>
      </trkpt>
      <trkpt lat="43.64814" lon="1.39153">
        <ele>126</ele>
        <time>2025-05-15T16:24:15Z</time>
      </trkpt>
      <trkpt lat="43.64811" lon="1.39155">
        <ele>126</ele>
        <time>2025-05-15T16:24:16Z</time>
      </trkpt>
      <trkpt lat="43.64808" lon="1.39157">
        <ele>126</ele>
        <time>2025-05-15T16:24:17Z</time>
      </trkpt>
      <trkpt lat="43.64805" lon="1.39159">
        <ele>126</ele>
        <time>2025-05-15T16:24:18Z</time>
      </trkpt>
      <trkpt lat="43.64803" lon="1.39161">
        <ele>126</ele>
        <time>2025-05-15T16:24:19Z</time>
      </trkpt>
      <trkpt lat="43.648" lon="1.39164">
        <ele>126</ele>
        <time>2025-05-15T16:24:20Z</time>
      </trkpt>
      <trkpt lat="43.64798" lon="1.39166">
        <ele>126</ele>
        <time>2025-05-15T16:24:21Z</time>
      </trkpt>
      <trkpt lat="43.64795" lon="1.39168">
        <ele>126</ele>
        <time>2025-05-15T16:24:22Z</time>
      </trkpt>
      <trkpt lat="43.64793" lon="1.39169">
        <ele>126</ele>
        <time>2025-05-15T16:24:23Z</time>
      </trkpt>
      <trkpt lat="43.6479" lon="1.39171">
        <ele>126</ele>
        <time>2025-05-15T16:24:24Z</time>
      </trkpt>
      <trkpt lat="43.64787" lon="1.39173">
        <ele>126</ele>
        <time>2025-05-15T16:24:25Z</time>
      </trkpt>
      <trkpt lat="43.64785" lon="1.39174">
        <ele>126</ele>
        <time>2025-05-15T16:24:26Z</time>
      </trkpt>
      <trkpt lat="43.64782" lon="1.39176">
        <ele>126</ele>
        <time>2025-05-15T16:24:27Z</time>
      </trkpt>
      <trkpt lat="43.6478" lon="1.39178">
        <ele>126</ele>
        <time>2025-05-15T16:24:28Z</time>
      </trkpt>
      <trkpt lat="43.64777" lon="1.3918">
        <ele>126</ele>
        <time>2025-05-15T16:24:29Z</time>
      </trkpt>
      <trkpt lat="43.64774" lon="1.39181">
        <ele>126</ele>
        <time>2025-05-15T16:24:30Z</time>
      </trkpt>
      <trkpt lat="43.64772" lon="1.39183">
        <ele>126</ele>
        <time>2025-05-15T16:24:31Z</time>
      </trkpt>
      <trkpt lat="43.64769" lon="1.39184">
        <ele>126</ele>
        <time>2025-05-15T16:24:32Z</time>
      </trkpt>
      <trkpt lat="43.64767" lon="1.39185">
        <ele>126</ele>
        <time>2025-05-15T16:24:33Z</time>
      </trkpt>
      <trkpt lat="43.64764" lon="1.39187">
        <ele>126</ele>
        <time>2025-05-15T16:24:34Z</time>
      </trkpt>
      <trkpt lat="43.64762" lon="1.39189">
        <ele>126</ele>
        <time>2025-05-15T16:24:35Z</time>
      </trkpt>
      <trkpt lat="43.64759" lon="1.3919">
        <ele>126</ele>
        <time>2025-05-15T16:24:36Z</time>
      </trkpt>
      <trkpt lat="43.64757" lon="1.39192">
        <ele>126</ele>
        <time>2025-05-15T16:24:37Z</time>
      </trkpt>
      <trkpt lat="43.64754" lon="1.39194">
        <ele>126</ele>
        <time>2025-05-15T16:24:38Z</time>
      </trkpt>
      <trkpt lat="43.64752" lon="1.39195">
        <ele>126</ele>
        <time>2025-05-15T16:24:39Z</time>
      </trkpt>
      <trkpt lat="43.64749" lon="1.39197">
        <ele>126</ele>
        <time>2025-05-15T16:24:40Z</time>
      </trkpt>
      <trkpt lat="43.64747" lon="1.39199">
        <ele>126</ele>
        <time>2025-05-15T16:24:41Z</time>
      </trkpt>
      <trkpt lat="43.64744" lon="1.39201">
        <ele>126</ele>
        <time>2025-05-15T16:24:42Z</time>
      </trkpt>
      <trkpt lat="43.64742" lon="1.39202">
        <ele>126</ele>
        <time>2025-05-15T16:24:43Z</time>
      </trkpt>
      <trkpt lat="43.64739" lon="1.39204">
        <ele>127</ele>
        <time>2025-05-15T16:24:44Z</time>
      </trkpt>
      <trkpt lat="43.64737" lon="1.39205">
        <ele>127</ele>
        <time>2025-05-15T16:24:45Z</time>
      </trkpt>
      <trkpt lat="43.64734" lon="1.39207">
        <ele>127</ele>
        <time>2025-05-15T16:24:46Z</time>
      </trkpt>
      <trkpt lat="43.64732" lon="1.39208">
        <ele>127</ele>
        <time>2025-05-15T16:24:47Z</time>
      </trkpt>
      <trkpt lat="43.64729" lon="1.3921">
        <ele>127</ele>
        <time>2025-05-15T16:24:48Z</time>
      </trkpt>
      <trkpt lat="43.64726" lon="1.39212">
        <ele>127</ele>
        <time>2025-05-15T16:24:49Z</time>
      </trkpt>
      <trkpt lat="43.64724" lon="1.39213">
        <ele>127</ele>
        <time>2025-05-15T16:24:50Z</time>
      </trkpt>
      <trkpt lat="43.64722" lon="1.39215">
        <ele>127</ele>
        <time>2025-05-15T16:24:51Z</time>
      </trkpt>
      <trkpt lat="43.6472" lon="1.39216">
        <ele>127</ele>
        <time>2025-05-15T16:24:52Z</time>
      </trkpt>
      <trkpt lat="43.64717" lon="1.39218">
        <ele>127</ele>
        <time>2025-05-15T16:24:53Z</time>
      </trkpt>
      <trkpt lat="43.64715" lon="1.3922">
        <ele>127</ele>
        <time>2025-05-15T16:24:54Z</time>
      </trkpt>
      <trkpt lat="43.64712" lon="1.39221">
        <ele>127</ele>
        <time>2025-05-15T16:24:55Z</time>
      </trkpt>
      <trkpt lat="43.6471" lon="1.39223">
        <ele>127</ele>
        <time>2025-05-15T16:24:56Z</time>
      </trkpt>
      <trkpt lat="43.64707" lon="1.39225">
        <ele>127</ele>
        <time>2025-05-15T16:24:57Z</time>
      </trkpt>
      <trkpt lat="43.64705" lon="1.39227">
        <ele>127</ele>
        <time>2025-05-15T16:24:58Z</time>
      </trkpt>
      <trkpt lat="43.64703" lon="1.39228">
        <ele>127</ele>
        <time>2025-05-15T16:24:59Z</time>
      </trkpt>
      <trkpt lat="43.647" lon="1.3923">
        <ele>127</ele>
        <time>2025-05-15T16:25:00Z</time>
      </trkpt>
      <trkpt lat="43.64698" lon="1.39231">
        <ele>127</ele>
        <time>2025-05-15T16:25:01Z</time>
      </trkpt>
      <trkpt lat="43.64695" lon="1.39233">
        <ele>127</ele>
        <time>2025-05-15T16:25:02Z</time>
      </trkpt>
      <trkpt lat="43.64693" lon="1.39234">
        <ele>127</ele>
        <time>2025-05-15T16:25:03Z</time>
      </trkpt>
      <trkpt lat="43.64691" lon="1.39236">
        <ele>127</ele>
        <time>2025-05-15T16:25:04Z</time>
      </trkpt>
      <trkpt lat="43.64688" lon="1.39237">
        <ele>127</ele>
        <time>2025-05-15T16:25:05Z</time>
      </trkpt>
      <trkpt lat="43.64686" lon="1.39239">
        <ele>127</ele>
        <time>2025-05-15T16:25:06Z</time>
      </trkpt>
      <trkpt lat="43.64683" lon="1.3924">
        <ele>127</ele>
        <time>2025-05-15T16:25:07Z</time>
      </trkpt>
      <trkpt lat="43.64681" lon="1.39242">
        <ele>127</ele>
        <time>2025-05-15T16:25:08Z</time>
      </trkpt>
      <trkpt lat="43.64678" lon="1.39243">
        <ele>127</ele>
        <time>2025-05-15T16:25:09Z</time>
      </trkpt>
      <trkpt lat="43.64676" lon="1.39244">
        <ele>127</ele>
        <time>2025-05-15T16:25:10Z</time>
      </trkpt>
      <trkpt lat="43.64673" lon="1.39246">
        <ele>127</ele>
        <time>2025-05-15T16:25:11Z</time>
      </trkpt>
      <trkpt lat="43.64671" lon="1.39247">
        <ele>127</ele>
        <time>2025-05-15T16:25:12Z</time>
      </trkpt>
      <trkpt lat="43.64668" lon="1.39249">
        <ele>127</ele>
        <time>2025-05-15T16:25:13Z</time>
      </trkpt>
      <trkpt lat="43.64666" lon="1.3925">
        <ele>127</ele>
        <time>2025-05-15T16:25:14Z</time>
      </trkpt>
      <trkpt lat="43.64663" lon="1.39252">
        <ele>127</ele>
        <time>2025-05-15T16:25:15Z</time>
      </trkpt>
      <trkpt lat="43.64661" lon="1.39253">
        <ele>127</ele>
        <time>2025-05-15T16:25:16Z</time>
      </trkpt>
      <trkpt lat="43.64658" lon="1.39254">
        <ele>127</ele>
        <time>2025-05-15T16:25:17Z</time>
      </trkpt>
      <trkpt lat="43.64656" lon="1.39255">
        <ele>127</ele>
        <time>2025-05-15T16:25:18Z</time>
      </trkpt>
      <trkpt lat="43.64653" lon="1.39257">
        <ele>127</ele>
        <time>2025-05-15T16:25:19Z</time>
      </trkpt>
      <trkpt lat="43.64651" lon="1.39258">
        <ele>127</ele>
        <time>2025-05-15T16:25:20Z</time>
      </trkpt>
      <trkpt lat="43.64648" lon="1.39259">
        <ele>127</ele>
        <time>2025-05-15T16:25:21Z</time>
      </trkpt>
      <trkpt lat="43.64646" lon="1.3926">
        <ele>127</ele>
        <time>2025-05-15T16:25:22Z</time>
      </trkpt>
      <trkpt lat="43.64643" lon="1.39262">
        <ele>127</ele>
        <time>2025-05-15T16:25:23Z</time>
      </trkpt>
      <trkpt lat="43.6464" lon="1.39263">
        <ele>127</ele>
        <time>2025-05-15T16:25:24Z</time>
      </trkpt>
      <trkpt lat="43.64638" lon="1.39264">
        <ele>127</ele>
        <time>2025-05-15T16:25:25Z</time>
      </trkpt>
      <trkpt lat="43.64635" lon="1.39265">
        <ele>127</ele>
        <time>2025-05-15T16:25:26Z</time>
      </trkpt>
      <trkpt lat="43.64633" lon="1.39267">
        <ele>127</ele>
        <time>2025-05-15T16:25:27Z</time>
      </trkpt>
      <trkpt lat="43.6463" lon="1.39268">
        <ele>127</ele>
        <time>2025-05-15T16:25:28Z</time>
      </trkpt>
      <trkpt lat="43.64627" lon="1.39269">
        <ele>127</ele>
        <time>2025-05-15T16:25:29Z</time>
      </trkpt>
      <trkpt lat="43.64625" lon="1.3927">
        <ele>127</ele>
        <time>2025-05-15T16:25:30Z</time>
      </trkpt>
      <trkpt lat="43.64622" lon="1.39272">
        <ele>127</ele>
        <time>2025-05-15T16:25:31Z</time>
      </trkpt>
      <trkpt lat="43.64619" lon="1.39273">
        <ele>127</ele>
        <time>2025-05-15T16:25:32Z</time>
      </trkpt>
      <trkpt lat="43.64617" lon="1.39273">
        <ele>127</ele>
        <time>2025-05-15T16:25:33Z</time>
      </trkpt>
      <trkpt lat="43.64615" lon="1.39274">
        <ele>127</ele>
        <time>2025-05-15T16:25:34Z</time>
      </trkpt>
      <trkpt lat="43.64612" lon="1.39275">
        <ele>127</ele>
        <time>2025-05-15T16:25:35Z</time>
      </trkpt>
      <trkpt lat="43.6461" lon="1.39276">
        <ele>127</ele>
        <time>2025-05-15T16:25:36Z</time>
      </trkpt>
      <trkpt lat="43.64607" lon="1.39278">
        <ele>127</ele>
        <time>2025-05-15T16:25:37Z</time>
      </trkpt>
      <trkpt lat="43.64604" lon="1.39279">
        <ele>127</ele>
        <time>2025-05-15T16:25:38Z</time>
      </trkpt>
      <trkpt lat="43.64602" lon="1.3928">
        <ele>127</ele>
        <time>2025-05-15T16:25:39Z</time>
      </trkpt>
      <trkpt lat="43.64599" lon="1.39282">
        <ele>127</ele>
        <time>2025-05-15T16:25:40Z</time>
      </trkpt>
      <trkpt lat="43.64596" lon="1.39282">
        <ele>127</ele>
        <time>2025-05-15T16:25:41Z</time>
      </trkpt>
      <trkpt lat="43.64593" lon="1.39283">
        <ele>127</ele>
        <time>2025-05-15T16:25:42Z</time>
      </trkpt>
      <trkpt lat="43.64591" lon="1.39284">
        <ele>127</ele>
        <time>2025-05-15T16:25:43Z</time>
      </trkpt>
      <trkpt lat="43.64588" lon="1.39285">
        <ele>128</ele>
        <time>2025-05-15T16:25:44Z</time>
      </trkpt>
      <trkpt lat="43.64585" lon="1.39286">
        <ele>128</ele>
        <time>2025-05-15T16:25:45Z</time>
      </trkpt>
      <trkpt lat="43.64583" lon="1.39287">
        <ele>128</ele>
        <time>2025-05-15T16:25:46Z</time>
      </trkpt>
      <trkpt lat="43.6458" lon="1.39288">
        <ele>128</ele>
        <time>2025-05-15T16:25:47Z</time>
      </trkpt>
      <trkpt lat="43.64577" lon="1.39289">
        <ele>128</ele>
        <time>2025-05-15T16:25:48Z</time>
      </trkpt>
      <trkpt lat="43.64575" lon="1.3929">
        <ele>128</ele>
        <time>2025-05-15T16:25:49Z</time>
      </trkpt>
      <trkpt lat="43.64572" lon="1.3929">
        <ele>128</ele>
        <time>2025-05-15T16:25:50Z</time>
      </trkpt>
      <trkpt lat="43.64569" lon="1.39291">
        <ele>128</ele>
        <time>2025-05-15T16:25:51Z</time>
      </trkpt>
      <trkpt lat="43.64566" lon="1.39292">
        <ele>127</ele>
        <time>2025-05-15T16:25:52Z</time>
      </trkpt>
      <trkpt lat="43.64564" lon="1.39293">
        <ele>127</ele>
        <time>2025-05-15T16:25:53Z</time>
      </trkpt>
      <trkpt lat="43.64561" lon="1.39294">
        <ele>127</ele>
        <time>2025-05-15T16:25:54Z</time>
      </trkpt>
      <trkpt lat="43.64558" lon="1.39295">
        <ele>127</ele>
        <time>2025-05-15T16:25:55Z</time>
      </trkpt>
      <trkpt lat="43.64555" lon="1.39296">
        <ele>127</ele>
        <time>2025-05-15T16:25:56Z</time>
      </trkpt>
      <trkpt lat="43.64552" lon="1.39297">
        <ele>127</ele>
        <time>2025-05-15T16:25:57Z</time>
      </trkpt>
      <trkpt lat="43.6455" lon="1.39298">
        <ele>127</ele>
        <time>2025-05-15T16:25:58Z</time>
      </trkpt>
      <trkpt lat="43.64547" lon="1.39298">
        <ele>127</ele>
        <time>2025-05-15T16:25:59Z</time>
      </trkpt>
      <trkpt lat="43.64544" lon="1.39299">
        <ele>127</ele>
        <time>2025-05-15T16:26:00Z</time>
      </trkpt>
      <trkpt lat="43.64542" lon="1.393">
        <ele>127</ele>
        <time>2025-05-15T16:26:01Z</time>
      </trkpt>
      <trkpt lat="43.64539" lon="1.393">
        <ele>127</ele>
        <time>2025-05-15T16:26:02Z</time>
      </trkpt>
      <trkpt lat="43.64537" lon="1.39301">
        <ele>127</ele>
        <time>2025-05-15T16:26:03Z</time>
      </trkpt>
      <trkpt lat="43.64534" lon="1.39301">
        <ele>127</ele>
        <time>2025-05-15T16:26:04Z</time>
      </trkpt>
      <trkpt lat="43.64531" lon="1.39303">
        <ele>127</ele>
        <time>2025-05-15T16:26:05Z</time>
      </trkpt>
      <trkpt lat="43.64528" lon="1.39304">
        <ele>127</ele>
        <time>2025-05-15T16:26:06Z</time>
      </trkpt>
      <trkpt lat="43.64525" lon="1.39304">
        <ele>127</ele>
        <time>2025-05-15T16:26:07Z</time>
      </trkpt>
      <trkpt lat="43.64522" lon="1.39305">
        <ele>127</ele>
        <time>2025-05-15T16:26:08Z</time>
      </trkpt>
      <trkpt lat="43.64519" lon="1.39305">
        <ele>127</ele>
        <time>2025-05-15T16:26:09Z</time>
      </trkpt>
      <trkpt lat="43.64516" lon="1.39306">
        <ele>127</ele>
        <time>2025-05-15T16:26:10Z</time>
      </trkpt>
      <trkpt lat="43.64513" lon="1.39306">
        <ele>127</ele>
        <time>2025-05-15T16:26:11Z</time>
      </trkpt>
      <trkpt lat="43.64511" lon="1.39306">
        <ele>127</ele>
        <time>2025-05-15T16:26:12Z</time>
      </trkpt>
      <trkpt lat="43.64508" lon="1.39306">
        <ele>127</ele>
        <time>2025-05-15T16:26:13Z</time>
      </trkpt>
      <trkpt lat="43.64505" lon="1.39307">
        <ele>128</ele>
        <time>2025-05-15T16:26:14Z</time>
      </trkpt>
      <trkpt lat="43.64502" lon="1.39307">
        <ele>128</ele>
        <time>2025-05-15T16:26:15Z</time>
      </trkpt>
      <trkpt lat="43.645" lon="1.39307">
        <ele>128</ele>
        <time>2025-05-15T16:26:16Z</time>
      </trkpt>
      <trkpt lat="43.64497" lon="1.39307">
        <ele>128</ele>
        <time>2025-05-15T16:26:17Z</time>
      </trkpt>
      <trkpt lat="43.64495" lon="1.39307">
        <ele>128</ele>
        <time>2025-05-15T16:26:18Z</time>
      </trkpt>
      <trkpt lat="43.64492" lon="1.39307">
        <ele>128</ele>
        <time>2025-05-15T16:26:19Z</time>
      </trkpt>
      <trkpt lat="43.6449" lon="1.39307">
        <ele>128</ele>
        <time>2025-05-15T16:26:20Z</time>
      </trkpt>
      <trkpt lat="43.64487" lon="1.39307">
        <ele>128</ele>
        <time>2025-05-15T16:26:21Z</time>
      </trkpt>
      <trkpt lat="43.64485" lon="1.39307">
        <ele>128</ele>
        <time>2025-05-15T16:26:22Z</time>
      </trkpt>
      <trkpt lat="43.64482" lon="1.39307">
        <ele>128</ele>
        <time>2025-05-15T16:26:23Z</time>
      </trkpt>
      <trkpt lat="43.64479" lon="1.39307">
        <ele>129</ele>
        <time>2025-05-15T16:26:24Z</time>
      </trkpt>
      <trkpt lat="43.64477" lon="1.39307">
        <ele>129</ele>
        <time>2025-05-15T16:26:25Z</time>
      </trkpt>
      <trkpt lat="43.64475" lon="1.39307">
        <ele>129</ele>
        <time>2025-05-15T16:26:26Z</time>
      </trkpt>
      <trkpt lat="43.64472" lon="1.39307">
        <ele>129</ele>
        <time>2025-05-15T16:26:27Z</time>
      </trkpt>
      <trkpt lat="43.6447" lon="1.39307">
        <ele>129</ele>
        <time>2025-05-15T16:26:28Z</time>
      </trkpt>
      <trkpt lat="43.64467" lon="1.39307">
        <ele>129</ele>
        <time>2025-05-15T16:26:29Z</time>
      </trkpt>
      <trkpt lat="43.64465" lon="1.39307">
        <ele>129</ele>
        <time>2025-05-15T16:26:30Z</time>
      </trkpt>
      <trkpt lat="43.64462" lon="1.39307">
        <ele>129</ele>
        <time>2025-05-15T16:26:31Z</time>
      </trkpt>
      <trkpt lat="43.64459" lon="1.39306">
        <ele>129</ele>
        <time>2025-05-15T16:26:32Z</time>
      </trkpt>
      <trkpt lat="43.64457" lon="1.39304">
        <ele>130</ele>
        <time>2025-05-15T16:26:33Z</time>
      </trkpt>
      <trkpt lat="43.64455" lon="1.393">
        <ele>130</ele>
        <time>2025-05-15T16:26:34Z</time>
      </trkpt>
      <trkpt lat="43.64454" lon="1.39295">
        <ele>130</ele>
        <time>2025-05-15T16:26:35Z</time>
      </trkpt>
      <trkpt lat="43.64453" lon="1.39291">
        <ele>130</ele>
        <time>2025-05-15T16:26:36Z</time>
      </trkpt>
      <trkpt lat="43.64452" lon="1.39287">
        <ele>130</ele>
        <time>2025-05-15T16:26:37Z</time>
      </trkpt>
      <trkpt lat="43.64451" lon="1.39283">
        <ele>130</ele>
        <time>2025-05-15T16:26:38Z</time>
      </trkpt>
      <trkpt lat="43.6445" lon="1.39279">
        <ele>130</ele>
        <time>2025-05-15T16:26:39Z</time>
      </trkpt>
      <trkpt lat="43.64449" lon="1.39275">
        <ele>130</ele>
        <time>2025-05-15T16:26:40Z</time>
      </trkpt>
      <trkpt lat="43.64447" lon="1.39272">
        <ele>130</ele>
        <time>2025-05-15T16:26:41Z</time>
      </trkpt>
      <trkpt lat="43.64446" lon="1.39268">
        <ele>130</ele>
        <time>2025-05-15T16:26:42Z</time>
      </trkpt>
      <trkpt lat="43.64445" lon="1.39264">
        <ele>130</ele>
        <time>2025-05-15T16:26:43Z</time>
      </trkpt>
      <trkpt lat="43.64444" lon="1.3926">
        <ele>130</ele>
        <time>2025-05-15T16:26:44Z</time>
      </trkpt>
      <trkpt lat="43.64443" lon="1.39257">
        <ele>131</ele>
        <time>2025-05-15T16:26:45Z</time>
      </trkpt>
      <trkpt lat="43.64441" lon="1.39254">
        <ele>131</ele>
        <time>2025-05-15T16:26:46Z</time>
      </trkpt>
      <trkpt lat="43.6444" lon="1.39251">
        <ele>131</ele>
        <time>2025-05-15T16:26:47Z</time>
      </trkpt>
      <trkpt lat="43.64439" lon="1.39247">
        <ele>131</ele>
        <time>2025-05-15T16:26:48Z</time>
      </trkpt>
      <trkpt lat="43.64438" lon="1.39244">
        <ele>131</ele>
        <time>2025-05-15T16:26:49Z</time>
      </trkpt>
      <trkpt lat="43.64436" lon="1.39241">
        <ele>131</ele>
        <time>2025-05-15T16:26:50Z</time>
      </trkpt>
      <trkpt lat="43.64435" lon="1.39238">
        <ele>131</ele>
        <time>2025-05-15T16:26:51Z</time>
      </trkpt>
      <trkpt lat="43.64433" lon="1.39235">
        <ele>131</ele>
        <time>2025-05-15T16:26:52Z</time>
      </trkpt>
      <trkpt lat="43.64432" lon="1.39231">
        <ele>130</ele>
        <time>2025-05-15T16:26:53Z</time>
      </trkpt>
      <trkpt lat="43.6443" lon="1.39228">
        <ele>130</ele>
        <time>2025-05-15T16:26:54Z</time>
      </trkpt>
      <trkpt lat="43.64428" lon="1.39225">
        <ele>131</ele>
        <time>2025-05-15T16:26:55Z</time>
      </trkpt>
      <trkpt lat="43.64427" lon="1.39222">
        <ele>131</ele>
        <time>2025-05-15T16:26:56Z</time>
      </trkpt>
      <trkpt lat="43.64425" lon="1.39219">
        <ele>131</ele>
        <time>2025-05-15T16:26:57Z</time>
      </trkpt>
      <trkpt lat="43.64423" lon="1.39216">
        <ele>131</ele>
        <time>2025-05-15T16:26:58Z</time>
      </trkpt>
      <trkpt lat="43.64422" lon="1.39213">
        <ele>131</ele>
        <time>2025-05-15T16:26:59Z</time>
      </trkpt>
      <trkpt lat="43.6442" lon="1.3921">
        <ele>131</ele>
        <time>2025-05-15T16:27:00Z</time>
      </trkpt>
      <trkpt lat="43.64419" lon="1.39207">
        <ele>131</ele>
        <time>2025-05-15T16:27:01Z</time>
      </trkpt>
      <trkpt lat="43.64417" lon="1.39204">
        <ele>131</ele>
        <time>2025-05-15T16:27:02Z</time>
      </trkpt>
      <trkpt lat="43.64416" lon="1.39201">
        <ele>132</ele>
        <time>2025-05-15T16:27:03Z</time>
      </trkpt>
      <trkpt lat="43.64414" lon="1.39197">
        <ele>132</ele>
        <time>2025-05-15T16:27:04Z</time>
      </trkpt>
      <trkpt lat="43.64412" lon="1.39194">
        <ele>132</ele>
        <time>2025-05-15T16:27:05Z</time>
      </trkpt>
      <trkpt lat="43.64411" lon="1.39191">
        <ele>132</ele>
        <time>2025-05-15T16:27:06Z</time>
      </trkpt>
      <trkpt lat="43.64409" lon="1.39188">
        <ele>132</ele>
        <time>2025-05-15T16:27:07Z</time>
      </trkpt>
      <trkpt lat="43.64408" lon="1.39185">
        <ele>133</ele>
        <time>2025-05-15T16:27:08Z</time>
      </trkpt>
      <trkpt lat="43.64407" lon="1.39181">
        <ele>133</ele>
        <time>2025-05-15T16:27:09Z</time>
      </trkpt>
      <trkpt lat="43.64406" lon="1.39177">
        <ele>133</ele>
        <time>2025-05-15T16:27:10Z</time>
      </trkpt>
      <trkpt lat="43.64406" lon="1.39174">
        <ele>133</ele>
        <time>2025-05-15T16:27:11Z</time>
      </trkpt>
      <trkpt lat="43.64406" lon="1.3917">
        <ele>134</ele>
        <time>2025-05-15T16:27:12Z</time>
      </trkpt>
      <trkpt lat="43.64406" lon="1.39167">
        <ele>135</ele>
        <time>2025-05-15T16:27:13Z</time>
      </trkpt>
      <trkpt lat="43.64406" lon="1.39163">
        <ele>135</ele>
        <time>2025-05-15T16:27:14Z</time>
      </trkpt>
      <trkpt lat="43.64406" lon="1.3916">
        <ele>135</ele>
        <time>2025-05-15T16:27:15Z</time>
      </trkpt>
      <trkpt lat="43.64407" lon="1.39157">
        <ele>135</ele>
        <time>2025-05-15T16:27:16Z</time>
      </trkpt>
      <trkpt lat="43.64407" lon="1.39154">
        <ele>135</ele>
        <time>2025-05-15T16:27:17Z</time>
      </trkpt>
      <trkpt lat="43.64408" lon="1.39151">
        <ele>136</ele>
        <time>2025-05-15T16:27:18Z</time>
      </trkpt>
      <trkpt lat="43.64409" lon="1.39148">
        <ele>136</ele>
        <time>2025-05-15T16:27:19Z</time>
      </trkpt>
      <trkpt lat="43.6441" lon="1.39145">
        <ele>136</ele>
        <time>2025-05-15T16:27:20Z</time>
      </trkpt>
      <trkpt lat="43.6441" lon="1.39142">
        <ele>138</ele>
        <time>2025-05-15T16:27:21Z</time>
      </trkpt>
      <trkpt lat="43.64411" lon="1.39139">
        <ele>138</ele>
        <time>2025-05-15T16:27:22Z</time>
      </trkpt>
      <trkpt lat="43.64412" lon="1.39136">
        <ele>138</ele>
        <time>2025-05-15T16:27:23Z</time>
      </trkpt>
      <trkpt lat="43.64413" lon="1.39134">
        <ele>138</ele>
        <time>2025-05-15T16:27:24Z</time>
      </trkpt>
      <trkpt lat="43.64414" lon="1.3913">
        <ele>138</ele>
        <time>2025-05-15T16:27:25Z</time>
      </trkpt>
      <trkpt lat="43.64414" lon="1.39126">
        <ele>138</ele>
        <time>2025-05-15T16:27:26Z</time>
      </trkpt>
      <trkpt lat="43.64415" lon="1.39123">
        <ele>139</ele>
        <time>2025-05-15T16:27:27Z</time>
      </trkpt>
      <trkpt lat="43.64416" lon="1.39121">
        <ele>139</ele>
        <time>2025-05-15T16:27:28Z</time>
      </trkpt>
      <trkpt lat="43.64417" lon="1.39118">
        <ele>139</ele>
        <time>2025-05-15T16:27:29Z</time>
      </trkpt>
      <trkpt lat="43.64417" lon="1.39115">
        <ele>140</ele>
        <time>2025-05-15T16:27:30Z</time>
      </trkpt>
      <trkpt lat="43.64418" lon="1.39113">
        <ele>140</ele>
        <time>2025-05-15T16:27:31Z</time>
      </trkpt>
      <trkpt lat="43.6442" lon="1.3911">
        <ele>140</ele>
        <time>2025-05-15T16:27:32Z</time>
      </trkpt>
      <trkpt lat="43.64422" lon="1.39107">
        <ele>140</ele>
        <time>2025-05-15T16:27:33Z</time>
      </trkpt>
      <trkpt lat="43.64424" lon="1.39104">
        <ele>141</ele>
        <time>2025-05-15T16:27:34Z</time>
      </trkpt>
      <trkpt lat="43.64426" lon="1.39101">
        <ele>141</ele>
        <time>2025-05-15T16:27:35Z</time>
      </trkpt>
      <trkpt lat="43.64427" lon="1.39098">
        <ele>141</ele>
        <time>2025-05-15T16:27:36Z</time>
      </trkpt>
      <trkpt lat="43.64429" lon="1.39096">
        <ele>141</ele>
        <time>2025-05-15T16:27:37Z</time>
      </trkpt>
      <trkpt lat="43.6443" lon="1.39093">
        <ele>142</ele>
        <time>2025-05-15T16:27:38Z</time>
      </trkpt>
      <trkpt lat="43.64431" lon="1.3909">
        <ele>142</ele>
        <time>2025-05-15T16:27:39Z</time>
      </trkpt>
      <trkpt lat="43.64433" lon="1.39087">
        <ele>143</ele>
        <time>2025-05-15T16:27:40Z</time>
      </trkpt>
      <trkpt lat="43.64434" lon="1.39084">
        <ele>143</ele>
        <time>2025-05-15T16:27:41Z</time>
      </trkpt>
      <trkpt lat="43.64436" lon="1.39082">
        <ele>143</ele>
        <time>2025-05-15T16:27:42Z</time>
      </trkpt>
      <trkpt lat="43.64437" lon="1.39079">
        <ele>143</ele>
        <time>2025-05-15T16:27:43Z</time>
      </trkpt>
      <trkpt lat="43.64438" lon="1.39076">
        <ele>143</ele>
        <time>2025-05-15T16:27:44Z</time>
      </trkpt>
      <trkpt lat="43.6444" lon="1.39073">
        <ele>143</ele>
        <time>2025-05-15T16:27:45Z</time>
      </trkpt>
      <trkpt lat="43.64441" lon="1.3907">
        <ele>143</ele>
        <time>2025-05-15T16:27:46Z</time>
      </trkpt>
      <trkpt lat="43.64443" lon="1.39068">
        <ele>143</ele>
        <time>2025-05-15T16:27:47Z</time>
      </trkpt>
      <trkpt lat="43.64444" lon="1.39065">
        <ele>143</ele>
        <time>2025-05-15T16:27:48Z</time>
      </trkpt>
      <trkpt lat="43.64445" lon="1.39063">
        <ele>143</ele>
        <time>2025-05-15T16:27:49Z</time>
      </trkpt>
      <trkpt lat="43.64447" lon="1.3906">
        <ele>143</ele>
        <time>2025-05-15T16:27:50Z</time>
      </trkpt>
      <trkpt lat="43.64448" lon="1.39058">
        <ele>143</ele>
        <time>2025-05-15T16:27:51Z</time>
      </trkpt>
      <trkpt lat="43.6445" lon="1.39055">
        <ele>143</ele>
        <time>2025-05-15T16:27:52Z</time>
      </trkpt>
      <trkpt lat="43.64451" lon="1.39053">
        <ele>143</ele>
        <time>2025-05-15T16:27:53Z</time>
      </trkpt>
      <trkpt lat="43.64453" lon="1.3905">
        <ele>144</ele>
        <time>2025-05-15T16:27:54Z</time>
      </trkpt>
      <trkpt lat="43.64455" lon="1.39047">
        <ele>144</ele>
        <time>2025-05-15T16:27:55Z</time>
      </trkpt>
      <trkpt lat="43.64457" lon="1.39045">
        <ele>143</ele>
        <time>2025-05-15T16:27:56Z</time>
      </trkpt>
      <trkpt lat="43.64458" lon="1.39042">
        <ele>143</ele>
        <time>2025-05-15T16:27:57Z</time>
      </trkpt>
      <trkpt lat="43.6446" lon="1.39039">
        <ele>143</ele>
        <time>2025-05-15T16:27:58Z</time>
      </trkpt>
      <trkpt lat="43.64462" lon="1.39037">
        <ele>143</ele>
        <time>2025-05-15T16:27:59Z</time>
      </trkpt>
      <trkpt lat="43.64464" lon="1.39035">
        <ele>143</ele>
        <time>2025-05-15T16:28:00Z</time>
      </trkpt>
      <trkpt lat="43.64465" lon="1.39033">
        <ele>143</ele>
        <time>2025-05-15T16:28:01Z</time>
      </trkpt>
      <trkpt lat="43.64468" lon="1.39032">
        <ele>143</ele>
        <time>2025-05-15T16:28:02Z</time>
      </trkpt>
      <trkpt lat="43.6447" lon="1.3903">
        <ele>143</ele>
        <time>2025-05-15T16:28:03Z</time>
      </trkpt>
      <trkpt lat="43.64471" lon="1.39027">
        <ele>143</ele>
        <time>2025-05-15T16:28:04Z</time>
      </trkpt>
      <trkpt lat="43.64472" lon="1.39024">
        <ele>144</ele>
        <time>2025-05-15T16:28:05Z</time>
      </trkpt>
      <trkpt lat="43.64473" lon="1.39021">
        <ele>144</ele>
        <time>2025-05-15T16:28:06Z</time>
      </trkpt>
      <trkpt lat="43.64474" lon="1.39018">
        <ele>144</ele>
        <time>2025-05-15T16:28:07Z</time>
      </trkpt>
      <trkpt lat="43.64476" lon="1.39015">
        <ele>144</ele>
        <time>2025-05-15T16:28:08Z</time>
      </trkpt>
      <trkpt lat="43.64477" lon="1.39012">
        <ele>143</ele>
        <time>2025-05-15T16:28:09Z</time>
      </trkpt>
      <trkpt lat="43.64478" lon="1.39009">
        <ele>144</ele>
        <time>2025-05-15T16:28:10Z</time>
      </trkpt>
      <trkpt lat="43.64479" lon="1.39005">
        <ele>144</ele>
        <time>2025-05-15T16:28:11Z</time>
      </trkpt>
      <trkpt lat="43.6448" lon="1.39002">
        <ele>144</ele>
        <time>2025-05-15T16:28:12Z</time>
      </trkpt>
      <trkpt lat="43.64481" lon="1.38998">
        <ele>144</ele>
        <time>2025-05-15T16:28:13Z</time>
      </trkpt>
      <trkpt lat="43.64483" lon="1.38995">
        <ele>144</ele>
        <time>2025-05-15T16:28:14Z</time>
      </trkpt>
      <trkpt lat="43.64484" lon="1.38992">
        <ele>143</ele>
        <time>2025-05-15T16:28:15Z</time>
      </trkpt>
      <trkpt lat="43.64485" lon="1.38989">
        <ele>143</ele>
        <time>2025-05-15T16:28:16Z</time>
      </trkpt>
      <trkpt lat="43.64486" lon="1.38986">
        <ele>143</ele>
        <time>2025-05-15T16:28:17Z</time>
      </trkpt>
      <trkpt lat="43.64487" lon="1.38982">
        <ele>143</ele>
        <time>2025-05-15T16:28:18Z</time>
      </trkpt>
      <trkpt lat="43.64488" lon="1.38979">
        <ele>143</ele>
        <time>2025-05-15T16:28:19Z</time>
      </trkpt>
      <trkpt lat="43.6449" lon="1.38976">
        <ele>143</ele>
        <time>2025-05-15T16:28:20Z</time>
      </trkpt>
      <trkpt lat="43.64491" lon="1.38973">
        <ele>143</ele>
        <time>2025-05-15T16:28:21Z</time>
      </trkpt>
      <trkpt lat="43.64492" lon="1.3897">
        <ele>143</ele>
        <time>2025-05-15T16:28:22Z</time>
      </trkpt>
      <trkpt lat="43.64493" lon="1.38966">
        <ele>143</ele>
        <time>2025-05-15T16:28:23Z</time>
      </trkpt>
      <trkpt lat="43.64495" lon="1.38962">
        <ele>143</ele>
        <time>2025-05-15T16:28:24Z</time>
      </trkpt>
      <trkpt lat="43.64496" lon="1.38959">
        <ele>143</ele>
        <time>2025-05-15T16:28:25Z</time>
      </trkpt>
      <trkpt lat="43.64497" lon="1.38955">
        <ele>143</ele>
        <time>2025-05-15T16:28:26Z</time>
      </trkpt>
      <trkpt lat="43.64498" lon="1.38952">
        <ele>143</ele>
        <time>2025-05-15T16:28:27Z</time>
      </trkpt>
      <trkpt lat="43.645" lon="1.38948">
        <ele>143</ele>
        <time>2025-05-15T16:28:28Z</time>
      </trkpt>
      <trkpt lat="43.64501" lon="1.38945">
        <ele>143</ele>
        <time>2025-05-15T16:28:29Z</time>
      </trkpt>
      <trkpt lat="43.64503" lon="1.38942">
        <ele>144</ele>
        <time>2025-05-15T16:28:30Z</time>
      </trkpt>
      <trkpt lat="43.64504" lon="1.38939">
        <ele>144</ele>
        <time>2025-05-15T16:28:31Z</time>
      </trkpt>
      <trkpt lat="43.64505" lon="1.38935">
        <ele>144</ele>
        <time>2025-05-15T16:28:32Z</time>
      </trkpt>
      <trkpt lat="43.64506" lon="1.38932">
        <ele>144</ele>
        <time>2025-05-15T16:28:33Z</time>
      </trkpt>
      <trkpt lat="43.64507" lon="1.38928">
        <ele>143</ele>
        <time>2025-05-15T16:28:34Z</time>
      </trkpt>
      <trkpt lat="43.64507" lon="1.38925">
        <ele>143</ele>
        <time>2025-05-15T16:28:35Z</time>
      </trkpt>
      <trkpt lat="43.64507" lon="1.38921">
        <ele>143</ele>
        <time>2025-05-15T16:28:36Z</time>
      </trkpt>
      <trkpt lat="43.64507" lon="1.38917">
        <ele>143</ele>
        <time>2025-05-15T16:28:37Z</time>
      </trkpt>
      <trkpt lat="43.64507" lon="1.38914">
        <ele>143</ele>
        <time>2025-05-15T16:28:38Z</time>
      </trkpt>
      <trkpt lat="43.64506" lon="1.3891">
        <ele>143</ele>
        <time>2025-05-15T16:28:39Z</time>
      </trkpt>
      <trkpt lat="43.64505" lon="1.38907">
        <ele>143</ele>
        <time>2025-05-15T16:28:40Z</time>
      </trkpt>
      <trkpt lat="43.64504" lon="1.38903">
        <ele>143</ele>
        <time>2025-05-15T16:28:41Z</time>
      </trkpt>
      <trkpt lat="43.64503" lon="1.389">
        <ele>143</ele>
        <time>2025-05-15T16:28:42Z</time>
      </trkpt>
      <trkpt lat="43.64502" lon="1.38896">
        <ele>143</ele>
        <time>2025-05-15T16:28:43Z</time>
      </trkpt>
      <trkpt lat="43.64501" lon="1.38892">
        <ele>143</ele>
        <time>2025-05-15T16:28:44Z</time>
      </trkpt>
      <trkpt lat="43.64501" lon="1.38889">
        <ele>143</ele>
        <time>2025-05-15T16:28:45Z</time>
      </trkpt>
      <trkpt lat="43.645" lon="1.38886">
        <ele>143</ele>
        <time>2025-05-15T16:28:46Z</time>
      </trkpt>
      <trkpt lat="43.645" lon="1.38882">
        <ele>143</ele>
        <time>2025-05-15T16:28:47Z</time>
      </trkpt>
      <trkpt lat="43.64499" lon="1.38879">
        <ele>143</ele>
        <time>2025-05-15T16:28:48Z</time>
      </trkpt>
      <trkpt lat="43.64498" lon="1.38875">
        <ele>143</ele>
        <time>2025-05-15T16:28:49Z</time>
      </trkpt>
      <trkpt lat="43.64498" lon="1.38872">
        <ele>144</ele>
        <time>2025-05-15T16:28:50Z</time>
      </trkpt>
      <trkpt lat="43.645" lon="1.3887">
        <ele>144</ele>
        <time>2025-05-15T16:28:51Z</time>
      </trkpt>
      <trkpt lat="43.64502" lon="1.38867">
        <ele>144</ele>
        <time>2025-05-15T16:28:52Z</time>
      </trkpt>
      <trkpt lat="43.64504" lon="1.38866">
        <ele>144</ele>
        <time>2025-05-15T16:28:53Z</time>
      </trkpt>
      <trkpt lat="43.64504" lon="1.38866">
        <ele>144</ele>
        <time>2025-05-15T16:28:54Z</time>
      </trkpt>
      <trkpt lat="43.64506" lon="1.38863">
        <ele>144</ele>
        <time>2025-05-15T16:28:55Z</time>
      </trkpt>
      <trkpt lat="43.64506" lon="1.38863">
        <ele>144</ele>
        <time>2025-05-15T16:28:56Z</time>
      </trkpt>
      <trkpt lat="43.64507" lon="1.3886">
        <ele>144</ele>
        <time>2025-05-15T16:28:57Z</time>
      </trkpt>
      <trkpt lat="43.64507" lon="1.3886">
        <ele>144</ele>
        <time>2025-05-15T16:28:58Z</time>
      </trkpt>
      <trkpt lat="43.64507" lon="1.38856">
        <ele>144</ele>
        <time>2025-05-15T16:28:59Z</time>
      </trkpt>
      <trkpt lat="43.64507" lon="1.38856">
        <ele>144</ele>
        <time>2025-05-15T16:29:00Z</time>
      </trkpt>
      <trkpt lat="43.64508" lon="1.38852">
        <ele>144</ele>
        <time>2025-05-15T16:29:01Z</time>
      </trkpt>
      <trkpt lat="43.64508" lon="1.38852">
        <ele>144</ele>
        <time>2025-05-15T16:29:02Z</time>
      </trkpt>
      <trkpt lat="43.6451" lon="1.3885">
        <ele>144</ele>
        <time>2025-05-15T16:29:03Z</time>
      </trkpt>
      <trkpt lat="43.6451" lon="1.3885">
        <ele>143</ele>
        <time>2025-05-15T16:29:04Z</time>
      </trkpt>
      <trkpt lat="43.64514" lon="1.3885">
        <ele>143</ele>
        <time>2025-05-15T16:29:05Z</time>
      </trkpt>
      <trkpt lat="43.64516" lon="1.38849">
        <ele>143</ele>
        <time>2025-05-15T16:29:06Z</time>
      </trkpt>
      <trkpt lat="43.64519" lon="1.38849">
        <ele>143</ele>
        <time>2025-05-15T16:29:07Z</time>
      </trkpt>
      <trkpt lat="43.64521" lon="1.38848">
        <ele>143</ele>
        <time>2025-05-15T16:29:08Z</time>
      </trkpt>
      <trkpt lat="43.64523" lon="1.38848">
        <ele>143</ele>
        <time>2025-05-15T16:29:09Z</time>
      </trkpt>
      <trkpt lat="43.64525" lon="1.38847">
        <ele>143</ele>
        <time>2025-05-15T16:29:10Z</time>
      </trkpt>
      <trkpt lat="43.64528" lon="1.38847">
        <ele>143</ele>
        <time>2025-05-15T16:29:11Z</time>
      </trkpt>
      <trkpt lat="43.64531" lon="1.38846">
        <ele>143</ele>
        <time>2025-05-15T16:29:12Z</time>
      </trkpt>
      <trkpt lat="43.64533" lon="1.38844">
        <ele>143</ele>
        <time>2025-05-15T16:29:13Z</time>
      </trkpt>
      <trkpt lat="43.64537" lon="1.38844">
        <ele>143</ele>
        <time>2025-05-15T16:29:14Z</time>
      </trkpt>
      <trkpt lat="43.6454" lon="1.38843">
        <ele>143</ele>
        <time>2025-05-15T16:29:15Z</time>
      </trkpt>
      <trkpt lat="43.64542" lon="1.38843">
        <ele>144</ele>
        <time>2025-05-15T16:29:16Z</time>
      </trkpt>
      <trkpt lat="43.64545" lon="1.38842">
        <ele>144</ele>
        <time>2025-05-15T16:29:17Z</time>
      </trkpt>
      <trkpt lat="43.64548" lon="1.38842">
        <ele>144</ele>
        <time>2025-05-15T16:29:18Z</time>
      </trkpt>
      <trkpt lat="43.6455" lon="1.38841">
        <ele>144</ele>
        <time>2025-05-15T16:29:19Z</time>
      </trkpt>
      <trkpt lat="43.64553" lon="1.38841">
        <ele>144</ele>
        <time>2025-05-15T16:29:20Z</time>
      </trkpt>
      <trkpt lat="43.64556" lon="1.3884">
        <ele>144</ele>
        <time>2025-05-15T16:29:21Z</time>
      </trkpt>
      <trkpt lat="43.64559" lon="1.3884">
        <ele>143</ele>
        <time>2025-05-15T16:29:22Z</time>
      </trkpt>
      <trkpt lat="43.64562" lon="1.38839">
        <ele>143</ele>
        <time>2025-05-15T16:29:23Z</time>
      </trkpt>
      <trkpt lat="43.64565" lon="1.38839">
        <ele>143</ele>
        <time>2025-05-15T16:29:24Z</time>
      </trkpt>
      <trkpt lat="43.64568" lon="1.38838">
        <ele>143</ele>
        <time>2025-05-15T16:29:25Z</time>
      </trkpt>
      <trkpt lat="43.64571" lon="1.38837">
        <ele>143</ele>
        <time>2025-05-15T16:29:26Z</time>
      </trkpt>
      <trkpt lat="43.64574" lon="1.38837">
        <ele>143</ele>
        <time>2025-05-15T16:29:27Z</time>
      </trkpt>
      <trkpt lat="43.64576" lon="1.38837">
        <ele>143</ele>
        <time>2025-05-15T16:29:28Z</time>
      </trkpt>
      <trkpt lat="43.64579" lon="1.38836">
        <ele>143</ele>
        <time>2025-05-15T16:29:29Z</time>
      </trkpt>
      <trkpt lat="43.64582" lon="1.38836">
        <ele>143</ele>
        <time>2025-05-15T16:29:30Z</time>
      </trkpt>
      <trkpt lat="43.64584" lon="1.38836">
        <ele>143</ele>
        <time>2025-05-15T16:29:31Z</time>
      </trkpt>
      <trkpt lat="43.64586" lon="1.38836">
        <ele>143</ele>
        <time>2025-05-15T16:29:32Z</time>
      </trkpt>
      <trkpt lat="43.64589" lon="1.38836">
        <ele>143</ele>
        <time>2025-05-15T16:29:33Z</time>
      </trkpt>
      <trkpt lat="43.64592" lon="1.38835">
        <ele>143</ele>
        <time>2025-05-15T16:29:34Z</time>
      </trkpt>
      <trkpt lat="43.64594" lon="1.38834">
        <ele>143</ele>
        <time>2025-05-15T16:29:35Z</time>
      </trkpt>
      <trkpt lat="43.64597" lon="1.38834">
        <ele>143</ele>
        <time>2025-05-15T16:29:36Z</time>
      </trkpt>
      <trkpt lat="43.64599" lon="1.38833">
        <ele>143</ele>
        <time>2025-05-15T16:29:37Z</time>
      </trkpt>
      <trkpt lat="43.64602" lon="1.38832">
        <ele>143</ele>
        <time>2025-05-15T16:29:38Z</time>
      </trkpt>
      <trkpt lat="43.64604" lon="1.38831">
        <ele>144</ele>
        <time>2025-05-15T16:29:39Z</time>
      </trkpt>
      <trkpt lat="43.64607" lon="1.3883">
        <ele>144</ele>
        <time>2025-05-15T16:29:40Z</time>
      </trkpt>
      <trkpt lat="43.6461" lon="1.38829">
        <ele>144</ele>
        <time>2025-05-15T16:29:41Z</time>
      </trkpt>
      <trkpt lat="43.64613" lon="1.38828">
        <ele>144</ele>
        <time>2025-05-15T16:29:42Z</time>
      </trkpt>
      <trkpt lat="43.64615" lon="1.38827">
        <ele>144</ele>
        <time>2025-05-15T16:29:43Z</time>
      </trkpt>
      <trkpt lat="43.64618" lon="1.38826">
        <ele>144</ele>
        <time>2025-05-15T16:29:44Z</time>
      </trkpt>
      <trkpt lat="43.64621" lon="1.38826">
        <ele>144</ele>
        <time>2025-05-15T16:29:45Z</time>
      </trkpt>
      <trkpt lat="43.64623" lon="1.38824">
        <ele>144</ele>
        <time>2025-05-15T16:29:46Z</time>
      </trkpt>
      <trkpt lat="43.64626" lon="1.38823">
        <ele>144</ele>
        <time>2025-05-15T16:29:47Z</time>
      </trkpt>
      <trkpt lat="43.64628" lon="1.38823">
        <ele>144</ele>
        <time>2025-05-15T16:29:48Z</time>
      </trkpt>
      <trkpt lat="43.64631" lon="1.38822">
        <ele>144</ele>
        <time>2025-05-15T16:29:49Z</time>
      </trkpt>
      <trkpt lat="43.64633" lon="1.3882">
        <ele>144</ele>
        <time>2025-05-15T16:29:50Z</time>
      </trkpt>
      <trkpt lat="43.64636" lon="1.38818">
        <ele>144</ele>
        <time>2025-05-15T16:29:51Z</time>
      </trkpt>
      <trkpt lat="43.64637" lon="1.38815">
        <ele>144</ele>
        <time>2025-05-15T16:29:52Z</time>
      </trkpt>
      <trkpt lat="43.64638" lon="1.38811">
        <ele>145</ele>
        <time>2025-05-15T16:29:53Z</time>
      </trkpt>
      <trkpt lat="43.64639" lon="1.38807">
        <ele>145</ele>
        <time>2025-05-15T16:29:54Z</time>
      </trkpt>
      <trkpt lat="43.64638" lon="1.38804">
        <ele>145</ele>
        <time>2025-05-15T16:29:55Z</time>
      </trkpt>
      <trkpt lat="43.64638" lon="1.388">
        <ele>145</ele>
        <time>2025-05-15T16:29:56Z</time>
      </trkpt>
      <trkpt lat="43.64637" lon="1.38797">
        <ele>144</ele>
        <time>2025-05-15T16:29:57Z</time>
      </trkpt>
      <trkpt lat="43.64637" lon="1.38793">
        <ele>145</ele>
        <time>2025-05-15T16:29:58Z</time>
      </trkpt>
      <trkpt lat="43.64636" lon="1.38789">
        <ele>145</ele>
        <time>2025-05-15T16:29:59Z</time>
      </trkpt>
      <trkpt lat="43.64635" lon="1.38786">
        <ele>145</ele>
        <time>2025-05-15T16:30:00Z</time>
      </trkpt>
      <trkpt lat="43.64634" lon="1.38782">
        <ele>144</ele>
        <time>2025-05-15T16:30:01Z</time>
      </trkpt>
      <trkpt lat="43.64633" lon="1.38779">
        <ele>144</ele>
        <time>2025-05-15T16:30:02Z</time>
      </trkpt>
      <trkpt lat="43.64632" lon="1.38775">
        <ele>144</ele>
        <time>2025-05-15T16:30:03Z</time>
      </trkpt>
      <trkpt lat="43.64632" lon="1.38771">
        <ele>144</ele>
        <time>2025-05-15T16:30:04Z</time>
      </trkpt>
      <trkpt lat="43.64631" lon="1.38768">
        <ele>144</ele>
        <time>2025-05-15T16:30:05Z</time>
      </trkpt>
      <trkpt lat="43.6463" lon="1.38765">
        <ele>144</ele>
        <time>2025-05-15T16:30:06Z</time>
      </trkpt>
      <trkpt lat="43.64629" lon="1.38761">
        <ele>144</ele>
        <time>2025-05-15T16:30:07Z</time>
      </trkpt>
      <trkpt lat="43.64628" lon="1.38758">
        <ele>144</ele>
        <time>2025-05-15T16:30:08Z</time>
      </trkpt>
      <trkpt lat="43.64627" lon="1.38754">
        <ele>144</ele>
        <time>2025-05-15T16:30:09Z</time>
      </trkpt>
      <trkpt lat="43.64626" lon="1.3875">
        <ele>144</ele>
        <time>2025-05-15T16:30:10Z</time>
      </trkpt>
      <trkpt lat="43.64625" lon="1.38746">
        <ele>144</ele>
        <time>2025-05-15T16:30:11Z</time>
      </trkpt>
      <trkpt lat="43.64625" lon="1.38742">
        <ele>143</ele>
        <time>2025-05-15T16:30:12Z</time>
      </trkpt>
      <trkpt lat="43.64624" lon="1.38738">
        <ele>144</ele>
        <time>2025-05-15T16:30:13Z</time>
      </trkpt>
      <trkpt lat="43.64624" lon="1.38734">
        <ele>144</ele>
        <time>2025-05-15T16:30:14Z</time>
      </trkpt>
      <trkpt lat="43.64623" lon="1.38731">
        <ele>145</ele>
        <time>2025-05-15T16:30:15Z</time>
      </trkpt>
      <trkpt lat="43.64622" lon="1.38727">
        <ele>145</ele>
        <time>2025-05-15T16:30:16Z</time>
      </trkpt>
      <trkpt lat="43.64622" lon="1.38724">
        <ele>145</ele>
        <time>2025-05-15T16:30:17Z</time>
      </trkpt>
      <trkpt lat="43.64621" lon="1.3872">
        <ele>144</ele>
        <time>2025-05-15T16:30:18Z</time>
      </trkpt>
      <trkpt lat="43.64621" lon="1.38716">
        <ele>145</ele>
        <time>2025-05-15T16:30:19Z</time>
      </trkpt>
      <trkpt lat="43.6462" lon="1.38712">
        <ele>145</ele>
        <time>2025-05-15T16:30:20Z</time>
      </trkpt>
      <trkpt lat="43.6462" lon="1.38708">
        <ele>145</ele>
        <time>2025-05-15T16:30:21Z</time>
      </trkpt>
      <trkpt lat="43.6462" lon="1.38705">
        <ele>145</ele>
        <time>2025-05-15T16:30:22Z</time>
      </trkpt>
      <trkpt lat="43.64619" lon="1.38701">
        <ele>145</ele>
        <time>2025-05-15T16:30:23Z</time>
      </trkpt>
      <trkpt lat="43.64618" lon="1.38697">
        <ele>145</ele>
        <time>2025-05-15T16:30:24Z</time>
      </trkpt>
      <trkpt lat="43.64617" lon="1.38693">
        <ele>145</ele>
        <time>2025-05-15T16:30:25Z</time>
      </trkpt>
      <trkpt lat="43.64616" lon="1.38689">
        <ele>145</ele>
        <time>2025-05-15T16:30:26Z</time>
      </trkpt>
      <trkpt lat="43.64616" lon="1.38685">
        <ele>145</ele>
        <time>2025-05-15T16:30:27Z</time>
      </trkpt>
      <trkpt lat="43.64615" lon="1.38681">
        <ele>145</ele>
        <time>2025-05-15T16:30:28Z</time>
      </trkpt>
      <trkpt lat="43.64614" lon="1.38677">
        <ele>146</ele>
        <time>2025-05-15T16:30:29Z</time>
      </trkpt>
      <trkpt lat="43.64614" lon="1.38673">
        <ele>146</ele>
        <time>2025-05-15T16:30:30Z</time>
      </trkpt>
      <trkpt lat="43.64613" lon="1.38669">
        <ele>146</ele>
        <time>2025-05-15T16:30:31Z</time>
      </trkpt>
      <trkpt lat="43.64613" lon="1.38665">
        <ele>146</ele>
        <time>2025-05-15T16:30:32Z</time>
      </trkpt>
      <trkpt lat="43.64612" lon="1.38661">
        <ele>146</ele>
        <time>2025-05-15T16:30:33Z</time>
      </trkpt>
      <trkpt lat="43.64612" lon="1.38657">
        <ele>146</ele>
        <time>2025-05-15T16:30:34Z</time>
      </trkpt>
      <trkpt lat="43.64611" lon="1.38653">
        <ele>146</ele>
        <time>2025-05-15T16:30:35Z</time>
      </trkpt>
      <trkpt lat="43.64611" lon="1.3865">
        <ele>146</ele>
        <time>2025-05-15T16:30:36Z</time>
      </trkpt>
      <trkpt lat="43.64611" lon="1.38646">
        <ele>146</ele>
        <time>2025-05-15T16:30:37Z</time>
      </trkpt>
      <trkpt lat="43.64611" lon="1.38642">
        <ele>146</ele>
        <time>2025-05-15T16:30:38Z</time>
      </trkpt>
      <trkpt lat="43.64611" lon="1.38638">
        <ele>146</ele>
        <time>2025-05-15T16:30:39Z</time>
      </trkpt>
      <trkpt lat="43.6461" lon="1.38634">
        <ele>145</ele>
        <time>2025-05-15T16:30:40Z</time>
      </trkpt>
      <trkpt lat="43.6461" lon="1.3863">
        <ele>145</ele>
        <time>2025-05-15T16:30:41Z</time>
      </trkpt>
      <trkpt lat="43.6461" lon="1.38626">
        <ele>145</ele>
        <time>2025-05-15T16:30:42Z</time>
      </trkpt>
      <trkpt lat="43.64609" lon="1.38622">
        <ele>145</ele>
        <time>2025-05-15T16:30:43Z</time>
      </trkpt>
      <trkpt lat="43.64609" lon="1.38619">
        <ele>145</ele>
        <time>2025-05-15T16:30:44Z</time>
      </trkpt>
      <trkpt lat="43.64608" lon="1.38615">
        <ele>145</ele>
        <time>2025-05-15T16:30:45Z</time>
      </trkpt>
      <trkpt lat="43.64608" lon="1.38612">
        <ele>146</ele>
        <time>2025-05-15T16:30:46Z</time>
      </trkpt>
      <trkpt lat="43.64607" lon="1.38608">
        <ele>146</ele>
        <time>2025-05-15T16:30:47Z</time>
      </trkpt>
      <trkpt lat="43.64607" lon="1.38604">
        <ele>146</ele>
        <time>2025-05-15T16:30:48Z</time>
      </trkpt>
      <trkpt lat="43.64606" lon="1.386">
        <ele>146</ele>
        <time>2025-05-15T16:30:49Z</time>
      </trkpt>
      <trkpt lat="43.64606" lon="1.38596">
        <ele>146</ele>
        <time>2025-05-15T16:30:50Z</time>
      </trkpt>
      <trkpt lat="43.64605" lon="1.38592">
        <ele>146</ele>
        <time>2025-05-15T16:30:51Z</time>
      </trkpt>
      <trkpt lat="43.64604" lon="1.38589">
        <ele>146</ele>
        <time>2025-05-15T16:30:52Z</time>
      </trkpt>
      <trkpt lat="43.64603" lon="1.38585">
        <ele>146</ele>
        <time>2025-05-15T16:30:53Z</time>
      </trkpt>
      <trkpt lat="43.64602" lon="1.38581">
        <ele>146</ele>
        <time>2025-05-15T16:30:54Z</time>
      </trkpt>
      <trkpt lat="43.64602" lon="1.38578">
        <ele>146</ele>
        <time>2025-05-15T16:30:55Z</time>
      </trkpt>
      <trkpt lat="43.64601" lon="1.38574">
        <ele>146</ele>
        <time>2025-05-15T16:30:56Z</time>
      </trkpt>
      <trkpt lat="43.64601" lon="1.38571">
        <ele>146</ele>
        <time>2025-05-15T16:30:57Z</time>
      </trkpt>
      <trkpt lat="43.646" lon="1.38567">
        <ele>145</ele>
        <time>2025-05-15T16:30:58Z</time>
      </trkpt>
      <trkpt lat="43.64599" lon="1.38563">
        <ele>145</ele>
        <time>2025-05-15T16:30:59Z</time>
      </trkpt>
      <trkpt lat="43.64599" lon="1.38558">
        <ele>145</ele>
        <time>2025-05-15T16:31:00Z</time>
      </trkpt>
      <trkpt lat="43.64599" lon="1.38554">
        <ele>145</ele>
        <time>2025-05-15T16:31:01Z</time>
      </trkpt>
      <trkpt lat="43.64598" lon="1.3855">
        <ele>145</ele>
        <time>2025-05-15T16:31:02Z</time>
      </trkpt>
      <trkpt lat="43.64598" lon="1.38546">
        <ele>145</ele>
        <time>2025-05-15T16:31:03Z</time>
      </trkpt>
      <trkpt lat="43.64597" lon="1.38542">
        <ele>145</ele>
        <time>2025-05-15T16:31:04Z</time>
      </trkpt>
      <trkpt lat="43.64595" lon="1.3854">
        <ele>145</ele>
        <time>2025-05-15T16:31:05Z</time>
      </trkpt>
      <trkpt lat="43.64594" lon="1.38536">
        <ele>145</ele>
        <time>2025-05-15T16:31:06Z</time>
      </trkpt>
      <trkpt lat="43.64593" lon="1.38533">
        <ele>145</ele>
        <time>2025-05-15T16:31:07Z</time>
      </trkpt>
      <trkpt lat="43.64593" lon="1.38529">
        <ele>145</ele>
        <time>2025-05-15T16:31:08Z</time>
      </trkpt>
      <trkpt lat="43.64592" lon="1.38525">
        <ele>145</ele>
        <time>2025-05-15T16:31:09Z</time>
      </trkpt>
      <trkpt lat="43.64592" lon="1.38521">
        <ele>145</ele>
        <time>2025-05-15T16:31:10Z</time>
      </trkpt>
      <trkpt lat="43.64592" lon="1.38518">
        <ele>145</ele>
        <time>2025-05-15T16:31:11Z</time>
      </trkpt>
      <trkpt lat="43.64593" lon="1.38515">
        <ele>145</ele>
        <time>2025-05-15T16:31:12Z</time>
      </trkpt>
      <trkpt lat="43.64593" lon="1.38512">
        <ele>145</ele>
        <time>2025-05-15T16:31:13Z</time>
      </trkpt>
      <trkpt lat="43.64594" lon="1.38508">
        <ele>145</ele>
        <time>2025-05-15T16:31:14Z</time>
      </trkpt>
      <trkpt lat="43.64594" lon="1.38504">
        <ele>146</ele>
        <time>2025-05-15T16:31:15Z</time>
      </trkpt>
      <trkpt lat="43.64593" lon="1.38501">
        <ele>146</ele>
        <time>2025-05-15T16:31:16Z</time>
      </trkpt>
      <trkpt lat="43.64592" lon="1.38497">
        <ele>146</ele>
        <time>2025-05-15T16:31:17Z</time>
      </trkpt>
      <trkpt lat="43.64591" lon="1.38494">
        <ele>145</ele>
        <time>2025-05-15T16:31:18Z</time>
      </trkpt>
      <trkpt lat="43.6459" lon="1.38491">
        <ele>145</ele>
        <time>2025-05-15T16:31:19Z</time>
      </trkpt>
      <trkpt lat="43.64589" lon="1.38488">
        <ele>145</ele>
        <time>2025-05-15T16:31:20Z</time>
      </trkpt>
      <trkpt lat="43.64588" lon="1.38485">
        <ele>145</ele>
        <time>2025-05-15T16:31:21Z</time>
      </trkpt>
      <trkpt lat="43.64588" lon="1.38482">
        <ele>145</ele>
        <time>2025-05-15T16:31:22Z</time>
      </trkpt>
      <trkpt lat="43.64588" lon="1.38479">
        <ele>145</ele>
        <time>2025-05-15T16:31:23Z</time>
      </trkpt>
      <trkpt lat="43.64588" lon="1.38479">
        <ele>146</ele>
        <time>2025-05-15T16:31:24Z</time>
      </trkpt>
      <trkpt lat="43.64589" lon="1.38476">
        <ele>146</ele>
        <time>2025-05-15T16:31:25Z</time>
      </trkpt>
      <trkpt lat="43.64589" lon="1.38476">
        <ele>146</ele>
        <time>2025-05-15T16:31:26Z</time>
      </trkpt>
      <trkpt lat="43.64589" lon="1.38471">
        <ele>146</ele>
        <time>2025-05-15T16:31:27Z</time>
      </trkpt>
      <trkpt lat="43.64587" lon="1.38467">
        <ele>146</ele>
        <time>2025-05-15T16:31:28Z</time>
      </trkpt>
      <trkpt lat="43.64585" lon="1.38464">
        <ele>146</ele>
        <time>2025-05-15T16:31:29Z</time>
      </trkpt>
      <trkpt lat="43.64583" lon="1.3846">
        <ele>146</ele>
        <time>2025-05-15T16:31:30Z</time>
      </trkpt>
      <trkpt lat="43.64582" lon="1.38456">
        <ele>146</ele>
        <time>2025-05-15T16:31:31Z</time>
      </trkpt>
      <trkpt lat="43.64581" lon="1.38452">
        <ele>147</ele>
        <time>2025-05-15T16:31:32Z</time>
      </trkpt>
      <trkpt lat="43.64581" lon="1.38448">
        <ele>147</ele>
        <time>2025-05-15T16:31:33Z</time>
      </trkpt>
      <trkpt lat="43.6458" lon="1.38444">
        <ele>147</ele>
        <time>2025-05-15T16:31:34Z</time>
      </trkpt>
      <trkpt lat="43.6458" lon="1.3844">
        <ele>147</ele>
        <time>2025-05-15T16:31:35Z</time>
      </trkpt>
      <trkpt lat="43.64579" lon="1.38436">
        <ele>147</ele>
        <time>2025-05-15T16:31:36Z</time>
      </trkpt>
      <trkpt lat="43.64578" lon="1.38433">
        <ele>147</ele>
        <time>2025-05-15T16:31:37Z</time>
      </trkpt>
      <trkpt lat="43.64577" lon="1.38429">
        <ele>147</ele>
        <time>2025-05-15T16:31:38Z</time>
      </trkpt>
      <trkpt lat="43.64577" lon="1.38425">
        <ele>147</ele>
        <time>2025-05-15T16:31:39Z</time>
      </trkpt>
      <trkpt lat="43.64576" lon="1.38422">
        <ele>147</ele>
        <time>2025-05-15T16:31:40Z</time>
      </trkpt>
      <trkpt lat="43.64576" lon="1.38418">
        <ele>146</ele>
        <time>2025-05-15T16:31:41Z</time>
      </trkpt>
      <trkpt lat="43.64575" lon="1.38414">
        <ele>146</ele>
        <time>2025-05-15T16:31:42Z</time>
      </trkpt>
      <trkpt lat="43.64575" lon="1.3841">
        <ele>146</ele>
        <time>2025-05-15T16:31:43Z</time>
      </trkpt>
      <trkpt lat="43.64574" lon="1.38406">
        <ele>146</ele>
        <time>2025-05-15T16:31:44Z</time>
      </trkpt>
      <trkpt lat="43.64574" lon="1.38403">
        <ele>147</ele>
        <time>2025-05-15T16:31:45Z</time>
      </trkpt>
      <trkpt lat="43.64573" lon="1.38399">
        <ele>147</ele>
        <time>2025-05-15T16:31:46Z</time>
      </trkpt>
      <trkpt lat="43.64573" lon="1.38396">
        <ele>147</ele>
        <time>2025-05-15T16:31:47Z</time>
      </trkpt>
      <trkpt lat="43.64572" lon="1.38392">
        <ele>146</ele>
        <time>2025-05-15T16:31:48Z</time>
      </trkpt>
      <trkpt lat="43.64571" lon="1.38388">
        <ele>146</ele>
        <time>2025-05-15T16:31:49Z</time>
      </trkpt>
      <trkpt lat="43.64571" lon="1.38384">
        <ele>146</ele>
        <time>2025-05-15T16:31:50Z</time>
      </trkpt>
      <trkpt lat="43.6457" lon="1.3838">
        <ele>146</ele>
        <time>2025-05-15T16:31:51Z</time>
      </trkpt>
      <trkpt lat="43.64569" lon="1.38376">
        <ele>146</ele>
        <time>2025-05-15T16:31:52Z</time>
      </trkpt>
      <trkpt lat="43.64569" lon="1.38372">
        <ele>146</ele>
        <time>2025-05-15T16:31:53Z</time>
      </trkpt>
      <trkpt lat="43.64568" lon="1.38368">
        <ele>146</ele>
        <time>2025-05-15T16:31:54Z</time>
      </trkpt>
      <trkpt lat="43.64567" lon="1.38364">
        <ele>146</ele>
        <time>2025-05-15T16:31:55Z</time>
      </trkpt>
      <trkpt lat="43.64567" lon="1.3836">
        <ele>147</ele>
        <time>2025-05-15T16:31:56Z</time>
      </trkpt>
      <trkpt lat="43.64566" lon="1.38357">
        <ele>147</ele>
        <time>2025-05-15T16:31:57Z</time>
      </trkpt>
      <trkpt lat="43.64565" lon="1.38352">
        <ele>147</ele>
        <time>2025-05-15T16:31:58Z</time>
      </trkpt>
      <trkpt lat="43.64564" lon="1.38348">
        <ele>147</ele>
        <time>2025-05-15T16:31:59Z</time>
      </trkpt>
      <trkpt lat="43.64564" lon="1.38344">
        <ele>147</ele>
        <time>2025-05-15T16:32:00Z</time>
      </trkpt>
      <trkpt lat="43.64563" lon="1.3834">
        <ele>147</ele>
        <time>2025-05-15T16:32:01Z</time>
      </trkpt>
      <trkpt lat="43.64562" lon="1.38337">
        <ele>147</ele>
        <time>2025-05-15T16:32:02Z</time>
      </trkpt>
      <trkpt lat="43.64561" lon="1.38333">
        <ele>147</ele>
        <time>2025-05-15T16:32:03Z</time>
      </trkpt>
      <trkpt lat="43.6456" lon="1.3833">
        <ele>147</ele>
        <time>2025-05-15T16:32:04Z</time>
      </trkpt>
      <trkpt lat="43.6456" lon="1.38326">
        <ele>147</ele>
        <time>2025-05-15T16:32:05Z</time>
      </trkpt>
      <trkpt lat="43.64559" lon="1.38323">
        <ele>147</ele>
        <time>2025-05-15T16:32:06Z</time>
      </trkpt>
      <trkpt lat="43.64558" lon="1.38319">
        <ele>147</ele>
        <time>2025-05-15T16:32:07Z</time>
      </trkpt>
      <trkpt lat="43.64558" lon="1.38315">
        <ele>146</ele>
        <time>2025-05-15T16:32:08Z</time>
      </trkpt>
      <trkpt lat="43.64557" lon="1.38312">
        <ele>146</ele>
        <time>2025-05-15T16:32:09Z</time>
      </trkpt>
      <trkpt lat="43.64557" lon="1.38308">
        <ele>146</ele>
        <time>2025-05-15T16:32:10Z</time>
      </trkpt>
      <trkpt lat="43.64556" lon="1.38304">
        <ele>146</ele>
        <time>2025-05-15T16:32:11Z</time>
      </trkpt>
      <trkpt lat="43.64556" lon="1.383">
        <ele>147</ele>
        <time>2025-05-15T16:32:12Z</time>
      </trkpt>
      <trkpt lat="43.64555" lon="1.38297">
        <ele>147</ele>
        <time>2025-05-15T16:32:13Z</time>
      </trkpt>
      <trkpt lat="43.64553" lon="1.38294">
        <ele>147</ele>
        <time>2025-05-15T16:32:14Z</time>
      </trkpt>
      <trkpt lat="43.64553" lon="1.3829">
        <ele>147</ele>
        <time>2025-05-15T16:32:15Z</time>
      </trkpt>
      <trkpt lat="43.64555" lon="1.38286">
        <ele>147</ele>
        <time>2025-05-15T16:32:16Z</time>
      </trkpt>
      <trkpt lat="43.64556" lon="1.38282">
        <ele>146</ele>
        <time>2025-05-15T16:32:17Z</time>
      </trkpt>
      <trkpt lat="43.64558" lon="1.38278">
        <ele>146</ele>
        <time>2025-05-15T16:32:18Z</time>
      </trkpt>
      <trkpt lat="43.64561" lon="1.38274">
        <ele>146</ele>
        <time>2025-05-15T16:32:19Z</time>
      </trkpt>
      <trkpt lat="43.64563" lon="1.38272">
        <ele>146</ele>
        <time>2025-05-15T16:32:20Z</time>
      </trkpt>
      <trkpt lat="43.64566" lon="1.3827">
        <ele>146</ele>
        <time>2025-05-15T16:32:21Z</time>
      </trkpt>
      <trkpt lat="43.64569" lon="1.38268">
        <ele>146</ele>
        <time>2025-05-15T16:32:22Z</time>
      </trkpt>
      <trkpt lat="43.64571" lon="1.38265">
        <ele>146</ele>
        <time>2025-05-15T16:32:23Z</time>
      </trkpt>
      <trkpt lat="43.64573" lon="1.38262">
        <ele>146</ele>
        <time>2025-05-15T16:32:24Z</time>
      </trkpt>
      <trkpt lat="43.64575" lon="1.38259">
        <ele>145</ele>
        <time>2025-05-15T16:32:25Z</time>
      </trkpt>
      <trkpt lat="43.64578" lon="1.38257">
        <ele>145</ele>
        <time>2025-05-15T16:32:26Z</time>
      </trkpt>
      <trkpt lat="43.6458" lon="1.38255">
        <ele>145</ele>
        <time>2025-05-15T16:32:27Z</time>
      </trkpt>
      <trkpt lat="43.64583" lon="1.38253">
        <ele>145</ele>
        <time>2025-05-15T16:32:28Z</time>
      </trkpt>
      <trkpt lat="43.64585" lon="1.38251">
        <ele>145</ele>
        <time>2025-05-15T16:32:29Z</time>
      </trkpt>
      <trkpt lat="43.64588" lon="1.38249">
        <ele>145</ele>
        <time>2025-05-15T16:32:30Z</time>
      </trkpt>
      <trkpt lat="43.64591" lon="1.38247">
        <ele>144</ele>
        <time>2025-05-15T16:32:31Z</time>
      </trkpt>
      <trkpt lat="43.64594" lon="1.38246">
        <ele>144</ele>
        <time>2025-05-15T16:32:32Z</time>
      </trkpt>
      <trkpt lat="43.64596" lon="1.38245">
        <ele>144</ele>
        <time>2025-05-15T16:32:33Z</time>
      </trkpt>
      <trkpt lat="43.64599" lon="1.38244">
        <ele>144</ele>
        <time>2025-05-15T16:32:34Z</time>
      </trkpt>
      <trkpt lat="43.64602" lon="1.38243">
        <ele>144</ele>
        <time>2025-05-15T16:32:35Z</time>
      </trkpt>
      <trkpt lat="43.64605" lon="1.38242">
        <ele>144</ele>
        <time>2025-05-15T16:32:36Z</time>
      </trkpt>
      <trkpt lat="43.64607" lon="1.38241">
        <ele>144</ele>
        <time>2025-05-15T16:32:37Z</time>
      </trkpt>
      <trkpt lat="43.6461" lon="1.3824">
        <ele>144</ele>
        <time>2025-05-15T16:32:38Z</time>
      </trkpt>
      <trkpt lat="43.64612" lon="1.38238">
        <ele>144</ele>
        <time>2025-05-15T16:32:39Z</time>
      </trkpt>
      <trkpt lat="43.64615" lon="1.38237">
        <ele>144</ele>
        <time>2025-05-15T16:32:40Z</time>
      </trkpt>
      <trkpt lat="43.64618" lon="1.38236">
        <ele>144</ele>
        <time>2025-05-15T16:32:41Z</time>
      </trkpt>
      <trkpt lat="43.6462" lon="1.38234">
        <ele>144</ele>
        <time>2025-05-15T16:32:42Z</time>
      </trkpt>
      <trkpt lat="43.64622" lon="1.38232">
        <ele>144</ele>
        <time>2025-05-15T16:32:43Z</time>
      </trkpt>
      <trkpt lat="43.64624" lon="1.38229">
        <ele>144</ele>
        <time>2025-05-15T16:32:44Z</time>
      </trkpt>
      <trkpt lat="43.64625" lon="1.38226">
        <ele>144</ele>
        <time>2025-05-15T16:32:45Z</time>
      </trkpt>
      <trkpt lat="43.64626" lon="1.38222">
        <ele>144</ele>
        <time>2025-05-15T16:32:46Z</time>
      </trkpt>
      <trkpt lat="43.64626" lon="1.38218">
        <ele>144</ele>
        <time>2025-05-15T16:32:47Z</time>
      </trkpt>
      <trkpt lat="43.64625" lon="1.38214">
        <ele>144</ele>
        <time>2025-05-15T16:32:48Z</time>
      </trkpt>
      <trkpt lat="43.64625" lon="1.3821">
        <ele>145</ele>
        <time>2025-05-15T16:32:49Z</time>
      </trkpt>
      <trkpt lat="43.64624" lon="1.38207">
        <ele>145</ele>
        <time>2025-05-15T16:32:50Z</time>
      </trkpt>
      <trkpt lat="43.64623" lon="1.38203">
        <ele>146</ele>
        <time>2025-05-15T16:32:51Z</time>
      </trkpt>
      <trkpt lat="43.64622" lon="1.38199">
        <ele>146</ele>
        <time>2025-05-15T16:32:52Z</time>
      </trkpt>
      <trkpt lat="43.64621" lon="1.38195">
        <ele>146</ele>
        <time>2025-05-15T16:32:53Z</time>
      </trkpt>
      <trkpt lat="43.6462" lon="1.38191">
        <ele>145</ele>
        <time>2025-05-15T16:32:54Z</time>
      </trkpt>
      <trkpt lat="43.64619" lon="1.38187">
        <ele>145</ele>
        <time>2025-05-15T16:32:55Z</time>
      </trkpt>
      <trkpt lat="43.64617" lon="1.38183">
        <ele>145</ele>
        <time>2025-05-15T16:32:56Z</time>
      </trkpt>
      <trkpt lat="43.64616" lon="1.38179">
        <ele>145</ele>
        <time>2025-05-15T16:32:57Z</time>
      </trkpt>
      <trkpt lat="43.64615" lon="1.38176">
        <ele>146</ele>
        <time>2025-05-15T16:32:58Z</time>
      </trkpt>
      <trkpt lat="43.64614" lon="1.38172">
        <ele>146</ele>
        <time>2025-05-15T16:32:59Z</time>
      </trkpt>
      <trkpt lat="43.64613" lon="1.38168">
        <ele>146</ele>
        <time>2025-05-15T16:33:00Z</time>
      </trkpt>
      <trkpt lat="43.64612" lon="1.38164">
        <ele>146</ele>
        <time>2025-05-15T16:33:01Z</time>
      </trkpt>
      <trkpt lat="43.64611" lon="1.38161">
        <ele>146</ele>
        <time>2025-05-15T16:33:02Z</time>
      </trkpt>
      <trkpt lat="43.6461" lon="1.38157">
        <ele>146</ele>
        <time>2025-05-15T16:33:03Z</time>
      </trkpt>
      <trkpt lat="43.64609" lon="1.38154">
        <ele>146</ele>
        <time>2025-05-15T16:33:04Z</time>
      </trkpt>
      <trkpt lat="43.64609" lon="1.3815">
        <ele>145</ele>
        <time>2025-05-15T16:33:05Z</time>
      </trkpt>
      <trkpt lat="43.64607" lon="1.38146">
        <ele>144</ele>
        <time>2025-05-15T16:33:06Z</time>
      </trkpt>
      <trkpt lat="43.64606" lon="1.38142">
        <ele>145</ele>
        <time>2025-05-15T16:33:07Z</time>
      </trkpt>
      <trkpt lat="43.64605" lon="1.38138">
        <ele>145</ele>
        <time>2025-05-15T16:33:08Z</time>
      </trkpt>
      <trkpt lat="43.64605" lon="1.38135">
        <ele>146</ele>
        <time>2025-05-15T16:33:09Z</time>
      </trkpt>
      <trkpt lat="43.64604" lon="1.38131">
        <ele>146</ele>
        <time>2025-05-15T16:33:10Z</time>
      </trkpt>
      <trkpt lat="43.64603" lon="1.38127">
        <ele>146</ele>
        <time>2025-05-15T16:33:11Z</time>
      </trkpt>
      <trkpt lat="43.64602" lon="1.38123">
        <ele>146</ele>
        <time>2025-05-15T16:33:12Z</time>
      </trkpt>
      <trkpt lat="43.646" lon="1.38119">
        <ele>146</ele>
        <time>2025-05-15T16:33:13Z</time>
      </trkpt>
      <trkpt lat="43.64599" lon="1.38115">
        <ele>146</ele>
        <time>2025-05-15T16:33:14Z</time>
      </trkpt>
      <trkpt lat="43.64598" lon="1.38111">
        <ele>146</ele>
        <time>2025-05-15T16:33:15Z</time>
      </trkpt>
      <trkpt lat="43.64598" lon="1.38107">
        <ele>146</ele>
        <time>2025-05-15T16:33:16Z</time>
      </trkpt>
      <trkpt lat="43.64597" lon="1.38103">
        <ele>146</ele>
        <time>2025-05-15T16:33:17Z</time>
      </trkpt>
      <trkpt lat="43.64596" lon="1.38099">
        <ele>146</ele>
        <time>2025-05-15T16:33:18Z</time>
      </trkpt>
      <trkpt lat="43.64595" lon="1.38096">
        <ele>146</ele>
        <time>2025-05-15T16:33:19Z</time>
      </trkpt>
      <trkpt lat="43.64594" lon="1.38092">
        <ele>145</ele>
        <time>2025-05-15T16:33:20Z</time>
      </trkpt>
      <trkpt lat="43.64592" lon="1.38089">
        <ele>145</ele>
        <time>2025-05-15T16:33:21Z</time>
      </trkpt>
      <trkpt lat="43.64591" lon="1.38085">
        <ele>145</ele>
        <time>2025-05-15T16:33:22Z</time>
      </trkpt>
      <trkpt lat="43.6459" lon="1.38081">
        <ele>145</ele>
        <time>2025-05-15T16:33:23Z</time>
      </trkpt>
      <trkpt lat="43.64589" lon="1.38077">
        <ele>145</ele>
        <time>2025-05-15T16:33:24Z</time>
      </trkpt>
      <trkpt lat="43.64588" lon="1.38074">
        <ele>145</ele>
        <time>2025-05-15T16:33:25Z</time>
      </trkpt>
      <trkpt lat="43.64588" lon="1.3807">
        <ele>145</ele>
        <time>2025-05-15T16:33:26Z</time>
      </trkpt>
      <trkpt lat="43.64587" lon="1.38066">
        <ele>145</ele>
        <time>2025-05-15T16:33:27Z</time>
      </trkpt>
      <trkpt lat="43.64586" lon="1.38062">
        <ele>144</ele>
        <time>2025-05-15T16:33:28Z</time>
      </trkpt>
      <trkpt lat="43.64585" lon="1.38059">
        <ele>145</ele>
        <time>2025-05-15T16:33:29Z</time>
      </trkpt>
      <trkpt lat="43.64584" lon="1.38055">
        <ele>145</ele>
        <time>2025-05-15T16:33:30Z</time>
      </trkpt>
      <trkpt lat="43.64582" lon="1.38052">
        <ele>145</ele>
        <time>2025-05-15T16:33:31Z</time>
      </trkpt>
      <trkpt lat="43.64581" lon="1.38049">
        <ele>145</ele>
        <time>2025-05-15T16:33:32Z</time>
      </trkpt>
      <trkpt lat="43.6458" lon="1.38046">
        <ele>145</ele>
        <time>2025-05-15T16:33:33Z</time>
      </trkpt>
      <trkpt lat="43.64578" lon="1.38043">
        <ele>145</ele>
        <time>2025-05-15T16:33:34Z</time>
      </trkpt>
      <trkpt lat="43.64576" lon="1.3804">
        <ele>145</ele>
        <time>2025-05-15T16:33:35Z</time>
      </trkpt>
      <trkpt lat="43.64574" lon="1.38036">
        <ele>145</ele>
        <time>2025-05-15T16:33:36Z</time>
      </trkpt>
      <trkpt lat="43.64573" lon="1.38032">
        <ele>145</ele>
        <time>2025-05-15T16:33:37Z</time>
      </trkpt>
      <trkpt lat="43.64573" lon="1.38028">
        <ele>145</ele>
        <time>2025-05-15T16:33:38Z</time>
      </trkpt>
      <trkpt lat="43.64572" lon="1.38024">
        <ele>145</ele>
        <time>2025-05-15T16:33:39Z</time>
      </trkpt>
      <trkpt lat="43.64571" lon="1.38021">
        <ele>145</ele>
        <time>2025-05-15T16:33:40Z</time>
      </trkpt>
      <trkpt lat="43.64569" lon="1.38019">
        <ele>145</ele>
        <time>2025-05-15T16:33:41Z</time>
      </trkpt>
      <trkpt lat="43.64567" lon="1.38017">
        <ele>144</ele>
        <time>2025-05-15T16:33:42Z</time>
      </trkpt>
      <trkpt lat="43.64564" lon="1.38015">
        <ele>144</ele>
        <time>2025-05-15T16:33:43Z</time>
      </trkpt>
      <trkpt lat="43.64562" lon="1.38014">
        <ele>144</ele>
        <time>2025-05-15T16:33:44Z</time>
      </trkpt>
      <trkpt lat="43.64559" lon="1.38012">
        <ele>145</ele>
        <time>2025-05-15T16:33:45Z</time>
      </trkpt>
      <trkpt lat="43.64556" lon="1.3801">
        <ele>145</ele>
        <time>2025-05-15T16:33:46Z</time>
      </trkpt>
      <trkpt lat="43.64554" lon="1.38009">
        <ele>145</ele>
        <time>2025-05-15T16:33:47Z</time>
      </trkpt>
      <trkpt lat="43.64551" lon="1.38007">
        <ele>145</ele>
        <time>2025-05-15T16:33:48Z</time>
      </trkpt>
      <trkpt lat="43.64549" lon="1.38005">
        <ele>145</ele>
        <time>2025-05-15T16:33:49Z</time>
      </trkpt>
      <trkpt lat="43.64547" lon="1.38003">
        <ele>145</ele>
        <time>2025-05-15T16:33:50Z</time>
      </trkpt>
      <trkpt lat="43.64545" lon="1.38001">
        <ele>145</ele>
        <time>2025-05-15T16:33:51Z</time>
      </trkpt>
      <trkpt lat="43.64545" lon="1.38001">
        <ele>144</ele>
        <time>2025-05-15T16:33:52Z</time>
      </trkpt>
      <trkpt lat="43.64543" lon="1.37998">
        <ele>144</ele>
        <time>2025-05-15T16:33:53Z</time>
      </trkpt>
      <trkpt lat="43.64543" lon="1.37998">
        <ele>144</ele>
        <time>2025-05-15T16:33:54Z</time>
      </trkpt>
    </trkseg>
  </trk>
</gpx>